| time (UTC) | temp C | wind direction | speed KPH | gust KPH | rain 1hr cm | rain 24hr cm | rain mn cm | humidity % | barometer mb |
| 20260902024655 | 13 | 89 | 8.0 | 9.7 | 0.00 | 0.00 | 0.00 | 94 | 1016.3 |
| 20260902024355 | 13 | 100 | 8.0 | 11.3 | 0.00 | 0.00 | 0.00 | 94 | 1016.4 |
| 20260902024055 | 13 | 53 | 0.0 | 29.0 | 0.00 | 0.00 | 0.00 | 94 | 1016.4 |
| 20260902023755 | 13 | 169 | 0.0 | 14.5 | 0.00 | 0.00 | 0.00 | 94 | 1016.4 |
| 20260902023455 | 13 | 100 | 6.4 | 17.7 | 0.00 | 0.00 | 0.00 | 94 | 1016.2 |
| 20260902023155 | 13 | 315 | 0.0 | 9.7 | 0.00 | 0.00 | 0.00 | 94 | 1016.3 |
| 20260902022855 | 13 | 74 | 8.0 | 12.9 | 0.00 | 0.00 | 0.00 | 94 | 1016.4 |
| 20260902022555 | 13 | 115 | 8.0 | 16.1 | 0.00 | 0.00 | 0.00 | 94 | 1016.2 |
| 20260902022255 | 13 | 81 | 6.4 | 17.7 | 0.00 | 0.00 | 0.00 | 94 | 1016.3 |
| 20260902021955 | 13 | 204 | 19.3 | 19.3 | 0.00 | 0.00 | 0.00 | 94 | 1016.4 |
| 20260902021655 | 13 | 184 | 6.4 | 17.7 | 0.00 | 0.00 | 0.00 | 94 | 1016.4 |
| 20260902021355 | 13 | 38 | 0.0 | 8.0 | 0.00 | 0.00 | 0.00 | 94 | 1016.2 |
| 20260902021055 | 13 | 52 | 0.0 | 9.7 | 0.00 | 0.00 | 0.00 | 94 | 1016.1 |
| 20260902020755 | 13 | 55 | 0.0 | 6.4 | 0.00 | 0.00 | 0.00 | 94 | 1016.4 |
| 20260902020455 | 13 | 95 | 16.1 | 17.7 | 0.00 | 0.00 | 0.00 | 94 | 1016.3 |
| 20260902020155 | 13 | 157 | 0.0 | 14.5 | 0.00 | 0.00 | 0.00 | 94 | 1016.3 |
| 20260902015855 | 13 | 350 | 0.0 | 8.0 | 0.00 | 0.00 | 0.00 | 94 | 1016.3 |
| 20260902015555 | 13 | 153 | 0.0 | 17.7 | 0.00 | 0.00 | 0.00 | 94 | 1016.3 |
| 20260902015255 | 13 | 313 | 0.0 | 19.3 | 0.00 | 0.00 | 0.00 | 94 | 1016.2 |
| 20260902014955 | 13 | 196 | 0.0 | 14.5 | 0.00 | 0.00 | 0.00 | 93 | 1016.1 |
| 20260902014655 | 13 | 296 | 11.3 | 20.9 | 0.00 | 0.00 | 0.00 | 93 | 1016.2 |
| 20260902014355 | 13 | 67 | 8.0 | 14.5 | 0.00 | 0.00 | 0.00 | 93 | 1016.2 |
| 20260902014055 | 14 | 120 | 0.0 | 9.7 | 0.00 | 0.00 | 0.00 | 93 | 1016.2 |
| 20260902013755 | 14 | 66 | 0.0 | 9.7 | 0.00 | 0.00 | 0.00 | 93 | 1016.3 |
| 20260902013455 | 14 | 190 | 8.0 | 8.0 | 0.00 | 0.00 | 0.00 | 93 | 1016.1 |
| 20260902013155 | 14 | 89 | 0.0 | 8.0 | 0.00 | 0.00 | 0.00 | 93 | 1016.3 |
| 20260902012855 | 14 | 290 | 0.0 | 6.4 | 0.00 | 0.00 | 0.00 | 93 | 1016.4 |
| 20260902012555 | 14 | 142 | 9.7 | 14.5 | 0.00 | 0.00 | 0.00 | 93 | 1016.2 |
| 20260902012255 | 14 | 107 | 0.0 | 17.7 | 0.00 | 0.00 | 0.00 | 92 | 1016.3 |
| 20260902011955 | 14 | 266 | 12.9 | 19.3 | 0.00 | 0.00 | 0.00 | 92 | 1016.2 |
| 20260902011655 | 14 | 102 | 0.0 | 8.0 | 0.00 | 0.00 | 0.00 | 92 | 1016.3 |
| 20260902011355 | 14 | 319 | 8.0 | 11.3 | 0.00 | 0.00 | 0.00 | 92 | 1016.2 |
| 20260902011055 | 14 | 50 | 0.0 | 9.7 | 0.00 | 0.00 | 0.00 | 92 | 1016.1 |
| 20260902010755 | 14 | 32 | 6.4 | 9.7 | 0.00 | 0.00 | 0.00 | 92 | 1016.2 |
| 20260902010455 | 14 | 113 | 0.0 | 11.3 | 0.00 | 0.00 | 0.00 | 92 | 1016.1 |
| 20260902010155 | 14 | 152 | 8.0 | 8.0 | 0.00 | 0.00 | 0.00 | 92 | 1016.3 |
| 20260902005855 | 14 | 50 | 0.0 | 17.7 | 0.00 | 0.00 | 0.00 | 92 | 1016.1 |
| 20260902005555 | 14 | 134 | 6.4 | 11.3 | 0.00 | 0.00 | 0.00 | 91 | 1016.3 |
| 20260902005255 | 14 | 145 | 0.0 | 14.5 | 0.00 | 0.00 | 0.00 | 91 | 1016.2 |
| 20260902004955 | 14 | 63 | 0.0 | 9.7 | 0.00 | 0.00 | 0.00 | 91 | 1016.3 |
| 20260902004655 | 15 | 165 | 0.0 | 6.4 | 0.00 | 0.00 | 0.00 | 91 | 1016.4 |
| 20260902004355 | 15 | 212 | 24.1 | 24.1 | 0.00 | 0.00 | 0.00 | 91 | 1016.2 |
| 20260902004055 | 15 | 5 | 6.4 | 16.1 | 0.00 | 0.00 | 0.00 | 91 | 1016.4 |
| 20260902003755 | 15 | 299 | 0.0 | 14.5 | 0.00 | 0.00 | 0.00 | 91 | 1016.3 |
| 20260902003455 | 15 | 313 | 8.0 | 9.7 | 0.00 | 0.00 | 0.00 | 91 | 1016.3 |
| 20260902003155 | 15 | 297 | 0.0 | 14.5 | 0.00 | 0.00 | 0.00 | 90 | 1016.1 |
| 20260902002855 | 15 | 293 | 8.0 | 9.7 | 0.00 | 0.00 | 0.00 | 90 | 1016.2 |
| 20260902002555 | 15 | 46 | 6.4 | 6.4 | 0.00 | 0.00 | 0.00 | 90 | 1016.2 |
| 20260902002255 | 15 | 179 | 6.4 | 6.4 | 0.00 | 0.00 | 0.00 | 89 | 1016.3 |
| 20260902001955 | 15 | 333 | 0.0 | 9.7 | 0.00 | 0.00 | 0.00 | 89 | 1016.2 |
| 20260902001655 | 15 | 292 | 0.0 | 11.3 | 0.00 | 0.00 | 0.00 | 89 | 1016.3 |
| 20260902001355 | 15 | 22 | 6.4 | 9.7 | 0.00 | 0.00 | 0.00 | 89 | 1016.1 |
| 20260902001055 | 15 | 292 | 0.0 | 17.7 | 0.00 | 0.00 | 0.00 | 89 | 1016.4 |
| 20260902000755 | 15 | 47 | 0.0 | 9.7 | 0.00 | 0.00 | 0.00 | 88 | 1016.5 |
| 20260902000455 | 15 | 1 | 0.0 | 14.5 | 0.00 | 0.00 | 0.00 | 88 | 1016.3 |
| 20260902000155 | 15 | 316 | 0.0 | 12.9 | 0.00 | 0.00 | 0.00 | 88 | 1016.2 |
| 20260901235855 | 15 | 46 | 9.7 | 9.7 | 0.00 | 0.00 | 0.00 | 88 | 1016.4 |
| 20260901235555 | 15 | 22 | 0.0 | 9.7 | 0.00 | 0.00 | 0.00 | 88 | 1016.3 |
| 20260901235255 | 15 | 247 | 0.0 | 17.7 | 0.00 | 0.00 | 0.00 | 88 | 1016.3 |
| 20260901234955 | 15 | 10 | 9.7 | 12.9 | 0.00 | 0.00 | 0.00 | 88 | 1016.2 |
| 20260901234655 | 15 | 288 | 9.7 | 16.1 | 0.00 | 0.00 | 0.00 | 88 | 1016.3 |
| 20260901234355 | 15 | 317 | 9.7 | 17.7 | 0.00 | 0.00 | 0.00 | 88 | 1016.3 |
| 20260901234055 | 15 | 337 | 8.0 | 19.3 | 0.00 | 0.00 | 0.00 | 88 | 1016.2 |
| 20260901233755 | 15 | 195 | 6.4 | 9.7 | 0.00 | 0.00 | 0.00 | 88 | 1016.3 |
| 20260901233455 | 15 | 350 | 9.7 | 17.7 | 0.00 | 0.00 | 0.00 | 88 | 1016.1 |
| 20260901233155 | 15 | 346 | 9.7 | 9.7 | 0.00 | 0.00 | 0.00 | 88 | 1016.4 |
| 20260901232855 | 15 | 281 | 17.7 | 24.1 | 0.00 | 0.00 | 0.00 | 88 | 1016.1 |
| 20260901232555 | 15 | 328 | 6.4 | 9.7 | 0.00 | 0.00 | 0.00 | 88 | 1016.2 |
| 20260901232255 | 15 | 322 | 9.7 | 30.6 | 0.00 | 0.00 | 0.00 | 88 | 1016.1 |
| 20260901231955 | 15 | 306 | 6.4 | 14.5 | 0.00 | 0.00 | 0.00 | 88 | 1015.9 |
| 20260901231655 | 15 | 285 | 9.7 | 17.7 | 0.00 | 0.00 | 0.00 | 88 | 1016.2 |
| 20260901231355 | 15 | 286 | 12.9 | 17.7 | 0.00 | 0.00 | 0.00 | 89 | 1016.2 |
| 20260901231055 | 15 | 275 | 0.0 | 16.1 | 0.00 | 0.00 | 0.00 | 89 | 1016.1 |
| 20260901230755 | 15 | 326 | 35.4 | 35.4 | 0.00 | 0.00 | 0.00 | 89 | 1016.0 |
| 20260901230455 | 15 | 351 | 0.0 | 8.0 | 0.00 | 0.00 | 0.00 | 89 | 1016.1 |
| 20260901230155 | 15 | 75 | 8.0 | 9.7 | 0.00 | 0.00 | 0.00 | 88 | 1016.0 |
| 20260901225855 | 15 | 346 | 9.7 | 14.5 | 0.00 | 0.00 | 0.00 | 88 | 1016.2 |
| 20260901225555 | 15 | 347 | 12.9 | 22.5 | 0.00 | 0.00 | 0.00 | 88 | 1016.1 |
| 20260901225255 | 15 | 329 | 6.4 | 11.3 | 0.00 | 0.00 | 0.00 | 88 | 1016.0 |
| 20260901224955 | 15 | 338 | 8.0 | 9.7 | 0.00 | 0.00 | 0.00 | 87 | 1016.0 |
| 20260901224655 | 15 | 44 | 0.0 | 12.9 | 0.00 | 0.00 | 0.00 | 87 | 1016.0 |
| 20260901224355 | 15 | 232 | 16.1 | 19.3 | 0.00 | 0.00 | 0.00 | 87 | 1016.0 |
| 20260901224055 | 15 | 315 | 6.4 | 17.7 | 0.00 | 0.00 | 0.00 | 86 | 1016.1 |
| 20260901223755 | 15 | 77 | 12.9 | 30.6 | 0.00 | 0.00 | 0.00 | 86 | 1016.1 |
| 20260901223455 | 16 | 293 | 6.4 | 9.7 | 0.00 | 0.00 | 0.00 | 86 | 1016.0 |
| 20260901223155 | 16 | 75 | 9.7 | 9.7 | 0.00 | 0.00 | 0.00 | 85 | 1016.0 |
| 20260901222855 | 16 | 29 | 0.0 | 0.0 | 0.00 | 0.00 | 0.00 | 85 | 1016.1 |
| 20260901222555 | 16 | 315 | 6.4 | 14.5 | 0.00 | 0.00 | 0.00 | 85 | 1016.0 |
| 20260901222255 | 16 | 315 | 6.4 | 14.5 | 0.00 | 0.00 | 0.00 | 85 | 1016.0 |
| 20260901221955 | 16 | 305 | 17.7 | 19.3 | 0.00 | 0.00 | 0.00 | 84 | 1015.7 |
| 20260901221655 | 16 | 133 | 0.0 | 6.4 | 0.00 | 0.00 | 0.00 | 84 | 1016.0 |
| 20260901221355 | 16 | 289 | 17.7 | 24.1 | 0.00 | 0.00 | 0.00 | 84 | 1016.0 |
| 20260901221055 | 16 | 329 | 22.5 | 32.2 | 0.00 | 0.00 | 0.00 | 84 | 1015.9 |
| 20260901220755 | 16 | 142 | 0.0 | 24.1 | 0.00 | 0.00 | 0.00 | 84 | 1015.8 |
| 20260901220455 | 16 | 288 | 9.7 | 17.7 | 0.00 | 0.00 | 0.00 | 84 | 1015.9 |
| 20260901220155 | 16 | 257 | 8.0 | 12.9 | 0.00 | 0.00 | 0.00 | 84 | 1015.9 |
| 20260901215855 | 16 | 246 | 12.9 | 25.7 | 0.00 | 0.00 | 0.08 | 84 | 1016.0 |
| 20260901215555 | 16 | 25 | 0.0 | 17.7 | 0.00 | 0.00 | 0.08 | 84 | 1015.9 |
| 20260901215255 | 16 | 301 | 29.0 | 30.6 | 0.00 | 0.00 | 0.08 | 84 | 1015.9 |
| 20260901214955 | 16 | 360 | 11.3 | 24.1 | 0.00 | 0.00 | 0.08 | 84 | 1015.9 |
| 20260901214655 | 16 | 301 | 25.7 | 25.7 | 0.00 | 0.00 | 0.08 | 84 | 1015.9 |
| 20260901214355 | 16 | 290 | 9.7 | 29.0 | 0.00 | 0.00 | 0.08 | 83 | 1016.1 |
| 20260901214055 | 16 | 310 | 22.5 | 22.5 | 0.00 | 0.00 | 0.08 | 83 | 1016.1 |
| 20260901213755 | 16 | 322 | 22.5 | 40.2 | 0.00 | 0.00 | 0.08 | 84 | 1015.9 |
| 20260901213455 | 16 | 299 | 0.0 | 9.7 | 0.00 | 0.00 | 0.08 | 84 | 1016.0 |
| 20260901213155 | 16 | 321 | 25.7 | 32.2 | 0.00 | 0.00 | 0.08 | 84 | 1015.8 |
| 20260901212855 | 16 | 308 | 11.3 | 14.5 | 0.00 | 0.00 | 0.08 | 84 | 1015.9 |
| 20260901212555 | 16 | 41 | 6.4 | 12.9 | 0.00 | 0.00 | 0.08 | 83 | 1015.8 |
| 20260901212255 | 16 | 311 | 0.0 | 11.3 | 0.00 | 0.00 | 0.08 | 83 | 1015.8 |
| 20260901211955 | 16 | 75 | 6.4 | 14.5 | 0.00 | 0.00 | 0.08 | 83 | 1015.8 |
| 20260901211655 | 16 | 196 | 8.0 | 11.3 | 0.00 | 0.00 | 0.08 | 82 | 1015.7 |
| 20260901211355 | 16 | 83 | 0.0 | 8.0 | 0.00 | 0.00 | 0.08 | 82 | 1015.8 |
| 20260901211055 | 16 | 267 | 6.4 | 9.7 | 0.00 | 0.00 | 0.08 | 82 | 1015.9 |
| 20260901210755 | 16 | 221 | 22.5 | 22.5 | 0.00 | 0.00 | 0.08 | 83 | 1015.8 |
| 20260901210455 | 16 | 135 | 0.0 | 16.1 | 0.00 | 0.00 | 0.08 | 83 | 1015.9 |
| 20260901210155 | 15 | 331 | 19.3 | 22.5 | 0.00 | 0.00 | 0.08 | 83 | 1015.8 |
| 20260901205855 | 15 | 142 | 0.0 | 0.0 | 0.00 | 0.00 | 0.08 | 83 | 1015.7 |
| 20260901205555 | 15 | 310 | 11.3 | 14.5 | 0.00 | 0.00 | 0.08 | 81 | 1015.8 |
| 20260901205255 | 15 | 310 | 11.3 | 14.5 | 0.00 | 0.00 | 0.08 | 81 | 1015.8 |
| 20260901204955 | 15 | 310 | 11.3 | 14.5 | 0.00 | 0.00 | 0.08 | 81 | 1015.7 |
| 20260901204655 | 15 | 310 | 11.3 | 14.5 | 0.00 | 0.00 | 0.08 | 81 | 1015.6 |
| 20260901204355 | 15 | 310 | 11.3 | 14.5 | 0.00 | 0.00 | 0.08 | 81 | 1015.5 |
| 20260901204055 | 15 | 310 | 11.3 | 14.5 | 0.00 | 0.00 | 0.08 | 81 | 1015.7 |
| 20260901203755 | 15 | 355 | 0.0 | 6.4 | 0.00 | 0.00 | 0.08 | 81 | 1015.6 |
| 20260901203455 | 15 | 355 | 0.0 | 6.4 | 0.00 | 0.00 | 0.08 | 81 | 1015.6 |
| 20260901203155 | 15 | 355 | 0.0 | 6.4 | 0.00 | 0.00 | 0.08 | 81 | 1015.7 |
| 20260901202855 | 15 | 355 | 0.0 | 6.4 | 0.00 | 0.00 | 0.08 | 81 | 1015.6 |
| 20260901202555 | 15 | 355 | 0.0 | 6.4 | 0.00 | 0.00 | 0.08 | 81 | 1015.6 |
| 20260901202255 | 16 | 8 | 17.7 | 17.7 | 0.00 | 0.00 | 0.08 | 80 | 1015.7 |
| 20260901201955 | 16 | 8 | 17.7 | 17.7 | 0.00 | 0.00 | 0.08 | 80 | 1015.8 |
| 20260901201655 | 16 | 8 | 17.7 | 17.7 | 0.00 | 0.00 | 0.08 | 80 | 1015.8 |
| 20260901201355 | 16 | 8 | 17.7 | 17.7 | 0.00 | 0.00 | 0.08 | 80 | 1015.6 |
| 20260901201055 | 16 | 8 | 17.7 | 17.7 | 0.00 | 0.00 | 0.08 | 80 | 1015.7 |
| 20260901200755 | 16 | 8 | 17.7 | 17.7 | 0.00 | 0.00 | 0.08 | 80 | 1015.5 |
| 20260901200455 | 16 | 8 | 17.7 | 17.7 | 0.00 | 0.00 | 0.08 | 80 | 1015.7 |
| 20260901200155 | 16 | 8 | 17.7 | 17.7 | 0.00 | 0.00 | 0.08 | 80 | 1015.7 |
| 20260901195855 | 16 | 8 | 17.7 | 17.7 | 0.00 | 0.00 | 0.08 | 80 | 1015.6 |
| 20260901195555 | 16 | 8 | 17.7 | 17.7 | 0.00 | 0.00 | 0.08 | 80 | 1015.5 |
| 20260901195255 | 16 | 8 | 17.7 | 17.7 | 0.00 | 0.00 | 0.08 | 80 | 1015.6 |
| 20260901194955 | 16 | 202 | 8.0 | 17.7 | 0.00 | 0.00 | 0.08 | 81 | 1015.6 |
| 20260901194655 | 16 | 202 | 8.0 | 17.7 | 0.00 | 0.00 | 0.08 | 81 | 1015.6 |
| 20260901194355 | 16 | 202 | 8.0 | 17.7 | 0.00 | 0.00 | 0.08 | 81 | 1015.6 |
| 20260901194055 | 16 | 202 | 8.0 | 17.7 | 0.00 | 0.00 | 0.08 | 81 | 1015.6 |
| 20260901193755 | 16 | 202 | 8.0 | 17.7 | 0.00 | 0.00 | 0.08 | 81 | 1015.6 |
| 20260901193455 | 16 | 202 | 8.0 | 17.7 | 0.00 | 0.00 | 0.08 | 81 | 1015.6 |
| 20260901193155 | 16 | 323 | 6.4 | 16.1 | 0.00 | 0.00 | 0.08 | 81 | 1015.6 |
| 20260901192855 | 16 | 347 | 6.4 | 14.5 | 0.00 | 0.00 | 0.08 | 81 | 1015.5 |
| 20260901192555 | 16 | 290 | 0.0 | 14.5 | 0.00 | 0.00 | 0.08 | 82 | 1015.7 |
| 20260901192255 | 16 | 296 | 9.7 | 24.1 | 0.00 | 0.00 | 0.08 | 82 | 1015.5 |
| 20260901191955 | 16 | 203 | 22.5 | 24.1 | 0.00 | 0.00 | 0.08 | 83 | 1015.6 |
| 20260901191655 | 16 | 60 | 9.7 | 19.3 | 0.00 | 0.00 | 0.08 | 84 | 1015.5 |
| 20260901191355 | 16 | 137 | 6.4 | 8.0 | 0.00 | 0.00 | 0.08 | 84 | 1015.5 |
| 20260901191055 | 16 | 312 | 24.1 | 24.1 | 0.00 | 0.00 | 0.08 | 84 | 1015.5 |
| 20260901190755 | 16 | 300 | 9.7 | 12.9 | 0.00 | 0.00 | 0.08 | 83 | 1015.6 |
| 20260901190455 | 16 | 300 | 9.7 | 12.9 | 0.00 | 0.00 | 0.08 | 83 | 1015.5 |
| 20260901190155 | 17 | 345 | 6.4 | 14.5 | 0.00 | 0.00 | 0.08 | 83 | 1015.6 |
| 20260901185855 | 17 | 345 | 6.4 | 14.5 | 0.00 | 0.00 | 0.08 | 83 | 1015.3 |
| 20260901185555 | 17 | 345 | 6.4 | 14.5 | 0.00 | 0.00 | 0.08 | 83 | 1015.3 |
| 20260901185255 | 17 | 345 | 6.4 | 14.5 | 0.00 | 0.00 | 0.08 | 83 | 1015.4 |
| 20260901184955 | 17 | 345 | 6.4 | 14.5 | 0.00 | 0.00 | 0.08 | 83 | 1015.4 |
| 20260901184655 | 17 | 345 | 6.4 | 14.5 | 0.00 | 0.00 | 0.08 | 83 | 1015.5 |
| 20260901184355 | 17 | 345 | 6.4 | 14.5 | 0.00 | 0.00 | 0.08 | 83 | 1015.3 |
| 20260901184055 | 17 | 345 | 6.4 | 14.5 | 0.00 | 0.00 | 0.08 | 83 | 1015.4 |
| 20260901183755 | 17 | 46 | 0.0 | 6.4 | 0.00 | 0.00 | 0.08 | 83 | 1015.5 |
| 20260901183455 | 17 | 46 | 0.0 | 19.3 | 0.00 | 0.00 | 0.08 | 83 | 1015.3 |
| 20260901183155 | 17 | 66 | 0.0 | 17.7 | 0.00 | 0.00 | 0.08 | 83 | 1015.2 |
| 20260901182855 | 17 | 296 | 0.0 | 17.7 | 0.00 | 0.00 | 0.08 | 83 | 1015.2 |
| 20260901182555 | 17 | 318 | 0.0 | 9.7 | 0.00 | 0.00 | 0.08 | 83 | 1015.2 |
| 20260901182255 | 17 | 76 | 6.4 | 16.1 | 0.00 | 0.00 | 0.08 | 83 | 1015.2 |
| 20260901181955 | 17 | 307 | 11.3 | 12.9 | 0.00 | 0.00 | 0.08 | 83 | 1015.3 |
| 20260901181655 | 17 | 102 | 6.4 | 29.0 | 0.00 | 0.00 | 0.08 | 83 | 1015.1 |
| 20260901181355 | 17 | 74 | 0.0 | 19.3 | 0.00 | 0.00 | 0.08 | 83 | 1015.1 |
| 20260901181055 | 17 | 269 | 0.0 | 20.9 | 0.00 | 0.00 | 0.08 | 83 | 1015.1 |
| 20260901180755 | 17 | 306 | 6.4 | 16.1 | 0.00 | 0.00 | 0.08 | 83 | 1015.1 |
| 20260901180455 | 17 | 263 | 0.0 | 20.9 | 0.00 | 0.00 | 0.08 | 82 | 1015.1 |
| 20260901180155 | 17 | 315 | 0.0 | 30.6 | 0.00 | 0.00 | 0.08 | 82 | 1015.1 |
| 20260901175855 | 17 | 201 | 9.7 | 29.0 | 0.00 | 0.00 | 0.08 | 82 | 1015.0 |
| 20260901175555 | 17 | 354 | 0.0 | 25.7 | 0.00 | 0.00 | 0.08 | 82 | 1015.0 |
| 20260901175255 | 17 | 93 | 0.0 | 16.1 | 0.00 | 0.00 | 0.08 | 81 | 1015.1 |
| 20260901174955 | 17 | 58 | 9.7 | 16.1 | 0.00 | 0.00 | 0.08 | 81 | 1015.1 |
| 20260901174655 | 17 | 286 | 24.1 | 25.7 | 0.00 | 0.00 | 0.08 | 81 | 1015.0 |
| 20260901174355 | 17 | 303 | 16.1 | 37.0 | 0.00 | 0.00 | 0.08 | 80 | 1014.8 |
| 20260901174055 | 17 | 16 | 6.4 | 22.5 | 0.00 | 0.00 | 0.08 | 80 | 1015.0 |
| 20260901173755 | 17 | 7 | 0.0 | 20.9 | 0.00 | 0.00 | 0.08 | 80 | 1014.9 |
| 20260901173455 | 17 | 305 | 11.3 | 29.0 | 0.00 | 0.00 | 0.08 | 80 | 1014.7 |
| 20260901173155 | 17 | 346 | 17.7 | 35.4 | 0.00 | 0.00 | 0.08 | 80 | 1014.9 |
| 20260901172855 | 17 | 122 | 19.3 | 32.2 | 0.00 | 0.00 | 0.08 | 80 | 1014.9 |
| 20260901172555 | 17 | 295 | 9.7 | 27.4 | 0.00 | 0.00 | 0.08 | 81 | 1014.9 |
| 20260901172255 | 17 | 317 | 0.0 | 24.1 | 0.00 | 0.00 | 0.08 | 83 | 1014.7 |
| 20260901171955 | 17 | 222 | 30.6 | 33.8 | 0.00 | 0.00 | 0.08 | 82 | 1014.7 |
| 20260901171655 | 17 | 305 | 11.3 | 22.5 | 0.00 | 0.00 | 0.08 | 83 | 1014.8 |
| 20260901171355 | 17 | 210 | 0.0 | 24.1 | 0.00 | 0.00 | 0.08 | 83 | 1014.6 |
| 20260901171055 | 17 | 299 | 8.0 | 61.2 | 0.00 | 0.00 | 0.08 | 82 | 1014.6 |
| 20260901170755 | 17 | 273 | 9.7 | 24.1 | 0.00 | 0.00 | 0.08 | 83 | 1014.8 |
| 20260901170455 | 17 | 264 | 9.7 | 22.5 | 0.00 | 0.00 | 0.08 | 83 | 1014.6 |
| 20260901170155 | 17 | 323 | 0.0 | 25.7 | 0.00 | 0.00 | 0.08 | 83 | 1014.6 |
| 20260901165855 | 17 | 286 | 24.1 | 29.0 | 0.00 | 0.00 | 0.08 | 83 | 1014.5 |
| 20260901165555 | 17 | 261 | 9.7 | 24.1 | 0.00 | 0.00 | 0.08 | 84 | 1014.5 |
| 20260901165255 | 17 | 253 | 9.7 | 24.1 | 0.00 | 0.00 | 0.08 | 84 | 1014.5 |
| 20260901164955 | 17 | 143 | 9.7 | 20.9 | 0.00 | 0.00 | 0.08 | 84 | 1014.4 |
| 20260901164655 | 17 | 356 | 17.7 | 24.1 | 0.00 | 0.00 | 0.08 | 84 | 1014.4 |
| 20260901164355 | 17 | 277 | 14.5 | 32.2 | 0.00 | 0.00 | 0.08 | 85 | 1014.4 |
| 20260901164055 | 17 | 283 | 12.9 | 20.9 | 0.00 | 0.00 | 0.08 | 86 | 1014.4 |
| 20260901163755 | 17 | 236 | 8.0 | 41.8 | 0.00 | 0.00 | 0.08 | 86 | 1014.3 |
| 20260901163455 | 17 | 37 | 8.0 | 24.1 | 0.00 | 0.00 | 0.08 | 86 | 1014.3 |
| 20260901163155 | 17 | 269 | 12.9 | 27.4 | 0.00 | 0.00 | 0.08 | 86 | 1014.3 |
| 20260901162855 | 17 | 305 | 9.7 | 12.9 | 0.00 | 0.00 | 0.08 | 87 | 1014.4 |
| 20260901162555 | 17 | 312 | 12.9 | 24.1 | 0.00 | 0.00 | 0.08 | 86 | 1014.5 |
| 20260901162255 | 17 | 154 | 11.3 | 19.3 | 0.00 | 0.00 | 0.08 | 85 | 1014.4 |
| 20260901161955 | 18 | 341 | 12.9 | 49.9 | 0.00 | 0.00 | 0.08 | 83 | 1014.4 |
| 20260901161655 | 18 | 222 | 17.7 | 69.2 | 0.00 | 0.00 | 0.08 | 81 | 1014.5 |
| 20260901161355 | 18 | 212 | 17.7 | 38.6 | 0.00 | 0.00 | 0.08 | 79 | 1014.4 |
| 20260901161055 | 19 | 263 | 24.1 | 48.3 | 0.00 | 0.00 | 0.08 | 75 | 1014.4 |
| 20260901160755 | 19 | 281 | 35.4 | 57.9 | 0.00 | 0.00 | 0.08 | 74 | 1014.4 |
| 20260901160455 | 19 | 148 | 22.5 | 66.0 | 0.00 | 0.00 | 0.08 | 74 | 1014.5 |
| 20260901160155 | 20 | 316 | 9.7 | 43.5 | 0.00 | 0.00 | 0.08 | 73 | 1014.3 |
| 20260901155855 | 20 | 304 | 19.3 | 30.6 | 0.00 | 0.00 | 0.08 | 72 | 1014.3 |
| 20260901155555 | 20 | 251 | 0.0 | 32.2 | 0.00 | 0.00 | 0.08 | 72 | 1014.3 |
| 20260901155255 | 20 | 298 | 14.5 | 45.1 | 0.00 | 0.00 | 0.08 | 71 | 1014.0 |
| 20260901154955 | 20 | 259 | 17.7 | 45.1 | 0.00 | 0.00 | 0.08 | 71 | 1014.1 |
| 20260901154655 | 20 | 245 | 22.5 | 48.3 | 0.00 | 0.00 | 0.08 | 70 | 1014.0 |
| 20260901154355 | 20 | 330 | 8.0 | 24.1 | 0.00 | 0.00 | 0.08 | 70 | 1014.2 |
| 20260901154055 | 20 | 308 | 14.5 | 32.2 | 0.00 | 0.00 | 0.08 | 69 | 1013.9 |
| 20260901153755 | 20 | 305 | 22.5 | 49.9 | 0.00 | 0.00 | 0.08 | 69 | 1014.2 |
| 20260901153455 | 20 | 142 | 17.7 | 27.4 | 0.00 | 0.00 | 0.08 | 69 | 1014.1 |
| 20260901153155 | 21 | 244 | 27.4 | 37.0 | 0.00 | 0.00 | 0.08 | 68 | 1014.1 |
| 20260901152855 | 21 | 342 | 17.7 | 43.5 | 0.00 | 0.00 | 0.08 | 67 | 1014.2 |
| 20260901152555 | 21 | 269 | 16.1 | 38.6 | 0.00 | 0.00 | 0.08 | 67 | 1014.1 |
| 20260901152255 | 21 | 171 | 17.7 | 37.0 | 0.00 | 0.00 | 0.08 | 69 | 1014.3 |
| 20260901151955 | 21 | 294 | 27.4 | 35.4 | 0.00 | 0.00 | 0.08 | 69 | 1014.0 |
| 20260901151655 | 21 | 273 | 9.7 | 51.5 | 0.00 | 0.00 | 0.08 | 68 | 1014.2 |
| 20260901151355 | 20 | 160 | 8.0 | 27.4 | 0.00 | 0.00 | 0.08 | 69 | 1014.3 |
| 20260901151055 | 20 | 267 | 17.7 | 61.2 | 0.00 | 0.00 | 0.08 | 68 | 1014.2 |
| 20260901150755 | 20 | 225 | 9.7 | 37.0 | 0.00 | 0.00 | 0.08 | 69 | 1014.4 |
| 20260901150455 | 21 | 267 | 17.7 | 48.3 | 0.00 | 0.00 | 0.08 | 68 | 1014.2 |
| 20260901150155 | 21 | 310 | 35.4 | 48.3 | 0.00 | 0.00 | 0.08 | 67 | 1014.2 |
| 20260901145855 | 21 | 230 | 9.7 | 27.4 | 0.00 | 0.00 | 0.08 | 68 | 1014.2 |
| 20260901145555 | 21 | 282 | 12.9 | 32.2 | 0.00 | 0.00 | 0.08 | 68 | 1014.1 |
| 20260901145255 | 21 | 258 | 24.1 | 45.1 | 0.00 | 0.00 | 0.08 | 68 | 1014.1 |
| 20260901144955 | 21 | 244 | 9.7 | 27.4 | 0.00 | 0.00 | 0.08 | 67 | 1014.0 |
| 20260901144655 | 21 | 310 | 29.0 | 48.3 | 0.00 | 0.00 | 0.08 | 66 | 1013.9 |
| 20260901144355 | 22 | 238 | 8.0 | 33.8 | 0.00 | 0.00 | 0.08 | 65 | 1013.8 |
| 20260901144055 | 22 | 232 | 12.9 | 45.1 | 0.00 | 0.00 | 0.08 | 64 | 1013.8 |
| 20260901143755 | 22 | 225 | 19.3 | 53.1 | 0.00 | 0.00 | 0.08 | 65 | 1013.7 |
| 20260901143455 | 21 | 236 | 17.7 | 62.8 | 0.00 | 0.00 | 0.08 | 65 | 1013.9 |
| 20260901143155 | 21 | 308 | 12.9 | 49.9 | 0.00 | 0.00 | 0.08 | 67 | 1013.7 |
| 20260901142855 | 21 | 240 | 8.0 | 33.8 | 0.00 | 0.00 | 0.08 | 67 | 1013.7 |
| 20260901142555 | 21 | 343 | 30.6 | 30.6 | 0.00 | 0.00 | 0.08 | 67 | 1013.8 |
| 20260901142255 | 21 | 266 | 12.9 | 43.5 | 0.00 | 0.00 | 0.08 | 66 | 1013.6 |
| 20260901141955 | 21 | 267 | 17.7 | 32.2 | 0.00 | 0.00 | 0.08 | 66 | 1013.8 |
| 20260901141655 | 21 | 207 | 30.6 | 69.2 | 0.00 | 0.00 | 0.08 | 65 | 1013.8 |
| 20260901141355 | 21 | 329 | 24.1 | 61.2 | 0.00 | 0.00 | 0.08 | 65 | 1013.8 |
| 20260901141055 | 21 | 222 | 9.7 | 53.1 | 0.00 | 0.00 | 0.08 | 66 | 1013.8 |
| 20260901140755 | 21 | 158 | 14.5 | 22.5 | 0.00 | 0.00 | 0.08 | 67 | 1013.8 |
| 20260901140455 | 21 | 114 | 9.7 | 35.4 | 0.00 | 0.00 | 0.08 | 68 | 1013.8 |
| 20260901140155 | 21 | 333 | 0.0 | 54.7 | 0.00 | 0.00 | 0.08 | 67 | 1013.9 |
| 20260901135855 | 21 | 329 | 37.0 | 46.7 | 0.00 | 0.00 | 0.08 | 67 | 1013.7 |
| 20260901135555 | 21 | 306 | 14.5 | 17.7 | 0.00 | 0.00 | 0.08 | 68 | 1013.7 |
| 20260901135255 | 21 | 278 | 12.9 | 49.9 | 0.00 | 0.00 | 0.08 | 67 | 1013.6 |
| 20260901134955 | 21 | 328 | 14.5 | 51.5 | 0.00 | 0.00 | 0.08 | 67 | 1013.7 |
| 20260901134655 | 21 | 197 | 6.4 | 46.7 | 0.00 | 0.00 | 0.08 | 66 | 1013.6 |
| 20260901134355 | 22 | 231 | 9.7 | 37.0 | 0.00 | 0.00 | 0.08 | 65 | 1013.6 |
| 20260901134055 | 22 | 225 | 20.9 | 40.2 | 0.00 | 0.00 | 0.08 | 65 | 1013.7 |
| 20260901133755 | 22 | 267 | 12.9 | 56.3 | 0.00 | 0.00 | 0.08 | 65 | 1013.6 |
| 20260901133455 | 22 | 291 | 17.7 | 37.0 | 0.00 | 0.00 | 0.08 | 65 | 1013.6 |
| 20260901133155 | 22 | 298 | 8.0 | 30.6 | 0.00 | 0.00 | 0.08 | 64 | 1013.5 |
| 20260901132855 | 22 | 263 | 37.0 | 49.9 | 0.00 | 0.00 | 0.08 | 63 | 1013.6 |
| 20260901132555 | 22 | 282 | 9.7 | 30.6 | 0.00 | 0.00 | 0.08 | 63 | 1013.7 |
| 20260901132255 | 22 | 258 | 9.7 | 40.2 | 0.00 | 0.00 | 0.08 | 64 | 1013.6 |
| 20260901131955 | 22 | 219 | 30.6 | 48.3 | 0.00 | 0.00 | 0.08 | 64 | 1013.7 |
| 20260901131655 | 22 | 314 | 17.7 | 32.2 | 0.00 | 0.00 | 0.08 | 64 | 1013.8 |
| 20260901131355 | 22 | 305 | 14.5 | 41.8 | 0.00 | 0.00 | 0.08 | 64 | 1013.4 |
| 20260901131055 | 22 | 312 | 8.0 | 22.5 | 0.00 | 0.00 | 0.08 | 67 | 1013.6 |
| 20260901130755 | 21 | 325 | 9.7 | 24.1 | 0.00 | 0.00 | 0.08 | 66 | 1013.4 |
| 20260901130455 | 21 | 248 | 0.0 | 22.5 | 0.00 | 0.00 | 0.08 | 68 | 1013.5 |
| 20260901130155 | 21 | 318 | 22.5 | 51.5 | 0.00 | 0.00 | 0.08 | 67 | 1013.6 |
| 20260901125855 | 21 | 126 | 24.1 | 48.3 | 0.00 | 0.00 | 0.08 | 66 | 1013.7 |
| 20260901125555 | 21 | 217 | 9.7 | 43.5 | 0.00 | 0.00 | 0.08 | 64 | 1013.7 |
| 20260901125255 | 21 | 283 | 0.0 | 29.0 | 0.00 | 0.00 | 0.08 | 65 | 1013.6 |
| 20260901124955 | 21 | 312 | 12.9 | 35.4 | 0.00 | 0.00 | 0.08 | 65 | 1013.6 |
| 20260901124655 | 20 | 303 | 12.9 | 25.7 | 0.00 | 0.00 | 0.08 | 66 | 1013.7 |
| 20260901124355 | 20 | 323 | 14.5 | 17.7 | 0.00 | 0.00 | 0.08 | 66 | 1013.4 |
| 20260901124055 | 20 | 260 | 0.0 | 38.6 | 0.00 | 0.00 | 0.08 | 66 | 1013.7 |
| 20260901123755 | 20 | 323 | 19.3 | 32.2 | 0.00 | 0.00 | 0.08 | 67 | 1013.6 |
| 20260901123455 | 20 | 310 | 24.1 | 56.3 | 0.00 | 0.00 | 0.08 | 66 | 1013.6 |
| 20260901123155 | 21 | 226 | 43.5 | 49.9 | 0.00 | 0.00 | 0.08 | 68 | 1013.7 |
| 20260901122855 | 21 | 188 | 16.1 | 30.6 | 0.00 | 0.00 | 0.08 | 68 | 1013.7 |
| 20260901122555 | 21 | 274 | 11.3 | 46.7 | 0.00 | 0.00 | 0.08 | 68 | 1013.7 |
| 20260901122255 | 21 | 241 | 12.9 | 67.6 | 0.00 | 0.00 | 0.08 | 66 | 1013.5 |
| 20260901121955 | 21 | 309 | 17.7 | 46.7 | 0.00 | 0.00 | 0.08 | 66 | 1013.4 |
| 20260901121655 | 21 | 281 | 9.7 | 43.5 | 0.00 | 0.00 | 0.08 | 65 | 1013.6 |
| 20260901121414 | 22 | 239 | 11.3 | 33.8 | 0.00 | 0.00 | 0.08 | 66 | 1013.4 |
| 20260901121055 | 22 | 177 | 29.0 | 74.0 | 0.00 | 0.00 | 0.08 | 65 | 1013.2 |
| 20260901120755 | 21 | 135 | 16.1 | 24.1 | 0.00 | 0.00 | 0.08 | 69 | 1013.4 |
| 20260901120455 | 21 | 59 | 14.5 | 19.3 | 0.00 | 0.00 | 0.08 | 70 | 1013.3 |
| 20260901120155 | 21 | 230 | 17.7 | 22.5 | 0.00 | 0.00 | 0.08 | 71 | 1013.5 |
| 20260901115855 | 21 | 296 | 9.7 | 19.3 | 0.00 | 0.00 | 0.08 | 70 | 1013.4 |
| 20260901115555 | 21 | 265 | 24.1 | 32.2 | 0.00 | 0.00 | 0.08 | 70 | 1013.4 |
| 20260901115255 | 20 | 169 | 12.9 | 24.1 | 0.00 | 0.00 | 0.08 | 71 | 1013.5 |
| 20260901114955 | 20 | 160 | 19.3 | 30.6 | 0.00 | 0.00 | 0.08 | 70 | 1013.4 |
| 20260901114655 | 21 | 305 | 11.3 | 27.4 | 0.00 | 0.00 | 0.08 | 69 | 1013.7 |
| 20260901114355 | 21 | 305 | 12.9 | 38.6 | 0.00 | 0.00 | 0.08 | 68 | 1013.5 |
| 20260901114055 | 21 | 269 | 14.5 | 54.7 | 0.00 | 0.00 | 0.08 | 67 | 1013.4 |
| 20260901113755 | 21 | 220 | 20.9 | 35.4 | 0.00 | 0.00 | 0.08 | 66 | 1013.3 |
| 20260901113455 | 21 | 232 | 17.7 | 35.4 | 0.00 | 0.00 | 0.08 | 65 | 1013.5 |
| 20260901113155 | 21 | 214 | 17.7 | 27.4 | 0.00 | 0.00 | 0.08 | 64 | 1013.3 |
| 20260901112855 | 22 | 240 | 12.9 | 41.8 | 0.00 | 0.00 | 0.08 | 61 | 1013.3 |
| 20260901112555 | 22 | 327 | 8.0 | 29.0 | 0.00 | 0.00 | 0.08 | 63 | 1013.2 |
| 20260901112255 | 22 | 260 | 12.9 | 41.8 | 0.00 | 0.00 | 0.08 | 63 | 1013.2 |
| 20260901111955 | 21 | 229 | 25.7 | 69.2 | 0.00 | 0.00 | 0.08 | 65 | 1013.3 |
| 20260901111655 | 21 | 252 | 29.0 | 51.5 | 0.00 | 0.00 | 0.08 | 66 | 1013.3 |
| 20260901111355 | 21 | 243 | 46.7 | 69.2 | 0.00 | 0.00 | 0.08 | 67 | 1013.3 |
| 20260901111055 | 20 | 285 | 11.3 | 48.3 | 0.00 | 0.00 | 0.08 | 70 | 1013.3 |
| 20260901110755 | 20 | 238 | 19.3 | 30.6 | 0.00 | 0.00 | 0.08 | 71 | 1013.6 |
| 20260901110455 | 20 | 278 | 8.0 | 35.4 | 0.00 | 0.00 | 0.08 | 71 | 1013.3 |
| 20260901110155 | 20 | 284 | 12.9 | 35.4 | 0.00 | 0.00 | 0.08 | 71 | 1013.3 |
| 20260901105855 | 20 | 266 | 12.9 | 70.8 | 0.00 | 0.00 | 0.08 | 70 | 1013.2 |
| 20260901105555 | 20 | 186 | 45.1 | 56.3 | 0.00 | 0.00 | 0.08 | 70 | 1013.1 |
| 20260901105255 | 20 | 237 | 37.0 | 37.0 | 0.00 | 0.00 | 0.08 | 71 | 1013.3 |
| 20260901104955 | 20 | 294 | 20.9 | 24.1 | 0.00 | 0.00 | 0.08 | 71 | 1013.1 |
| 20260901104655 | 21 | 269 | 17.7 | 57.9 | 0.00 | 0.00 | 0.08 | 69 | 1013.1 |
| 20260901104355 | 21 | 204 | 16.1 | 32.2 | 0.00 | 0.00 | 0.08 | 69 | 1013.2 |
| 20260901104055 | 21 | 233 | 16.1 | 25.7 | 0.00 | 0.00 | 0.08 | 69 | 1013.2 |
| 20260901103755 | 21 | 259 | 17.7 | 32.2 | 0.00 | 0.00 | 0.08 | 68 | 1013.0 |
| 20260901103455 | 21 | 162 | 27.4 | 69.2 | 0.00 | 0.00 | 0.08 | 66 | 1013.1 |
| 20260901103155 | 21 | 210 | 24.1 | 38.6 | 0.00 | 0.00 | 0.08 | 68 | 1013.1 |
| 20260901102855 | 21 | 223 | 9.7 | 56.3 | 0.00 | 0.00 | 0.08 | 68 | 1013.1 |
| 20260901102555 | 21 | 223 | 16.1 | 40.2 | 0.00 | 0.00 | 0.08 | 67 | 1013.0 |
| 20260901102255 | 21 | 170 | 11.3 | 37.0 | 0.00 | 0.00 | 0.08 | 69 | 1013.0 |
| 20260901101955 | 21 | 268 | 20.9 | 37.0 | 0.00 | 0.00 | 0.08 | 69 | 1013.0 |
| 20260901101655 | 21 | 311 | 30.6 | 45.1 | 0.00 | 0.00 | 0.08 | 67 | 1013.1 |
| 20260901101355 | 21 | 30 | 16.1 | 51.5 | 0.00 | 0.00 | 0.08 | 67 | 1012.9 |
| 20260901101055 | 21 | 308 | 29.0 | 51.5 | 0.00 | 0.00 | 0.08 | 68 | 1013.1 |
| 20260901100755 | 21 | 249 | 6.4 | 75.6 | 0.00 | 0.00 | 0.08 | 65 | 1012.8 |
| 20260901100455 | 21 | 283 | 33.8 | 62.8 | 0.00 | 0.00 | 0.08 | 66 | 1013.0 |
| 20260901100155 | 21 | 227 | 17.7 | 75.6 | 0.00 | 0.00 | 0.08 | 66 | 1013.0 |
| 20260901095855 | 21 | 231 | 14.5 | 38.6 | 0.00 | 0.00 | 0.08 | 69 | 1013.2 |
| 20260901095555 | 21 | 283 | 12.9 | 59.5 | 0.00 | 0.00 | 0.08 | 68 | 1012.9 |
| 20260901095255 | 21 | 236 | 14.5 | 48.3 | 0.00 | 0.00 | 0.08 | 68 | 1012.9 |
| 20260901094955 | 21 | 277 | 14.5 | 33.8 | 0.00 | 0.00 | 0.08 | 69 | 1012.7 |
| 20260901094655 | 21 | 293 | 14.5 | 43.5 | 0.00 | 0.00 | 0.08 | 71 | 1012.8 |
| 20260901094355 | 21 | 304 | 12.9 | 40.2 | 0.00 | 0.00 | 0.08 | 72 | 1012.8 |
| 20260901094055 | 20 | 289 | 9.7 | 43.5 | 0.00 | 0.00 | 0.08 | 72 | 1012.7 |
| 20260901093755 | 20 | 307 | 30.6 | 37.0 | 0.00 | 0.00 | 0.08 | 73 | 1012.7 |
| 20260901093455 | 20 | 289 | 22.5 | 43.5 | 0.00 | 0.00 | 0.08 | 73 | 1012.8 |
| 20260901093155 | 20 | 272 | 25.7 | 30.6 | 0.00 | 0.00 | 0.08 | 72 | 1012.7 |
| 20260901092855 | 20 | 283 | 9.7 | 24.1 | 0.00 | 0.00 | 0.08 | 75 | 1012.7 |
| 20260901092555 | 20 | 256 | 19.3 | 56.3 | 0.00 | 0.00 | 0.08 | 73 | 1012.8 |
| 20260901092254 | 20 | 247 | 16.1 | 37.0 | 0.00 | 0.00 | 0.08 | 75 | 1012.7 |
| 20260901091955 | 20 | 287 | 14.5 | 37.0 | 0.00 | 0.00 | 0.08 | 77 | 1012.4 |
| 20260901091655 | 20 | 119 | 27.4 | 46.7 | 0.00 | 0.00 | 0.08 | 76 | 1012.5 |
| 20260901091355 | 19 | 272 | 12.9 | 38.6 | 0.00 | 0.00 | 0.08 | 77 | 1012.7 |
| 20260901091055 | 19 | 283 | 24.1 | 24.1 | 0.00 | 0.00 | 0.08 | 79 | 1012.6 |
| 20260901090755 | 18 | 297 | 14.5 | 43.5 | 0.00 | 0.00 | 0.08 | 79 | 1012.7 |
| 20260901090455 | 18 | 255 | 17.7 | 59.5 | 0.00 | 0.00 | 0.08 | 79 | 1012.6 |
| 20260901090155 | 18 | 218 | 20.9 | 37.0 | 0.00 | 0.00 | 0.08 | 81 | 1012.5 |
| 20260901085855 | 18 | 287 | 24.1 | 48.3 | 0.00 | 0.00 | 0.08 | 81 | 1012.5 |
| 20260901085555 | 18 | 218 | 11.3 | 37.0 | 0.00 | 0.00 | 0.08 | 81 | 1012.8 |
| 20260901085242 | -17 | 0.0 | 0.0 | 0.00 | 0.00 | 0.00 | |||
| 20260901085202 | -17 | 0.0 | 0.0 | 0.00 | 0.00 | 0.00 | |||
| 20260901085135 | -17 | 0.0 | 0.0 | 0.00 | 0.00 | 0.00 | |||
| 20260901085122 | 18 | 233 | 17.7 | 27.4 | 0.00 | 0.00 | 0.08 | 83 | 1012.5 |
| 20260901084822 | 18 | 6 | 9.7 | 25.7 | 0.00 | 0.00 | 0.08 | 84 | 1012.6 |
| 20260901084522 | 18 | 150 | 24.1 | 43.5 | 0.00 | 0.00 | 0.08 | 85 | 1012.5 |
| 20260901084209 | -17 | 0.0 | 0.0 | 0.00 | 0.00 | 0.00 | |||
| 20260901084142 | -17 | 0.0 | 0.0 | 0.00 | 0.00 | 0.00 | |||
| 20260901084103 | -17 | 0.0 | 0.0 | 0.00 | 0.00 | 0.00 | |||
| 20260901084049 | -17 | 0.0 | 0.0 | 0.00 | 0.00 | 0.00 | |||
| 20260901084009 | -17 | 0.0 | 0.0 | 0.00 | 0.00 | 0.00 | |||
| 20260901083943 | -17 | 0.0 | 0.0 | 0.00 | 0.00 | 0.00 | |||
| 20260901083903 | -17 | 0.0 | 0.0 | 0.00 | 0.00 | 0.00 | |||
| 20260901083850 | -17 | 0.0 | 0.0 | 0.00 | 0.00 | 0.00 | |||
| 20260901083810 | -17 | 0.0 | 0.0 | 0.00 | 0.00 | 0.00 | |||
| 20260901083744 | -17 | 0.0 | 0.0 | 0.00 | 0.00 | 0.00 | |||
| 20260901083704 | -17 | 0.0 | 0.0 | 0.00 | 0.00 | 0.00 | |||
| 20260901083651 | -17 | 0.0 | 0.0 | 0.00 | 0.00 | 0.00 | |||
| 20260901083611 | -17 | 0.0 | 0.0 | 0.00 | 0.00 | 0.00 | |||
| 20260901083545 | -17 | 0.0 | 0.0 | 0.00 | 0.00 | 0.00 | |||
| 20260901083505 | -17 | 0.0 | 0.0 | 0.00 | 0.00 | 0.00 | |||
| 20260901083452 | -17 | 0.0 | 0.0 | 0.00 | 0.00 | 0.00 | |||
| 20260901083412 | -17 | 0.0 | 0.0 | 0.00 | 0.00 | 0.00 | |||
| 20260901083345 | -17 | 0.0 | 0.0 | 0.00 | 0.00 | 0.00 | |||
| 20260901083306 | -17 | 0.0 | 0.0 | 0.00 | 0.00 | 0.00 | |||
| 20260901083253 | -17 | 0.0 | 0.0 | 0.00 | 0.00 | 0.00 | |||
| 20260901083213 | -17 | 0.0 | 0.0 | 0.00 | 0.00 | 0.00 | |||
| 20260901083146 | -17 | 0.0 | 0.0 | 0.00 | 0.00 | 0.00 | |||
| 20260901083106 | -17 | 0.0 | 0.0 | 0.00 | 0.00 | 0.00 | |||
| 20260901083041 | -17 | 0.0 | 0.0 | 0.00 | 0.00 | 0.00 | |||
| 20260901083000 | -17 | 0.0 | 0.0 | 0.00 | 0.00 | 0.00 | |||
| 20260901082947 | -17 | 0.0 | 0.0 | 0.00 | 0.00 | 0.00 | |||
| 20260901082907 | -17 | 0.0 | 0.0 | 0.00 | 0.00 | 0.00 | |||
| 20260901082841 | -17 | 0.0 | 0.0 | 0.00 | 0.00 | 0.00 | |||
| 20260901082801 | -17 | 0.0 | 0.0 | 0.00 | 0.00 | 0.00 | |||
| 20260901082748 | -17 | 0.0 | 0.0 | 0.00 | 0.00 | 0.00 | |||
| 20260901082708 | -17 | 0.0 | 0.0 | 0.00 | 0.00 | 0.00 | |||
| 20260901082642 | -17 | 0.0 | 0.0 | 0.00 | 0.00 | 0.00 | |||
| 20260901082602 | -17 | 0.0 | 0.0 | 0.00 | 0.00 | 0.00 | |||
| 20260901082549 | -17 | 0.0 | 0.0 | 0.00 | 0.00 | 0.00 | |||
| 20260901082509 | -17 | 0.0 | 0.0 | 0.00 | 0.00 | 0.00 | |||
| 20260901082442 | -17 | 0.0 | 0.0 | 0.00 | 0.00 | 0.00 | |||
| 20260901082402 | -17 | 0.0 | 0.0 | 0.00 | 0.00 | 0.00 | |||
| 20260901082349 | -17 | 0.0 | 0.0 | 0.00 | 0.00 | 0.00 | |||
| 20260901082309 | -17 | 0.0 | 0.0 | 0.00 | 0.00 | 0.00 | |||
| 20260901082243 | -17 | 0.0 | 0.0 | 0.00 | 0.00 | 0.00 | |||
| 20260901082203 | -17 | 0.0 | 0.0 | 0.00 | 0.00 | 0.00 | |||
| 20260901082150 | -17 | 0.0 | 0.0 | 0.00 | 0.00 | 0.00 | |||
| 20260901082110 | -17 | 0.0 | 0.0 | 0.00 | 0.00 | 0.00 | |||
| 20260901082044 | -17 | 0.0 | 0.0 | 0.00 | 0.00 | 0.00 | |||
| 20260901082004 | -17 | 0.0 | 0.0 | 0.00 | 0.00 | 0.00 | |||
| 20260901081951 | -17 | 0.0 | 0.0 | 0.00 | 0.00 | 0.00 | |||
| 20260901081911 | -17 | 0.0 | 0.0 | 0.00 | 0.00 | 0.00 | |||
| 20260901081844 | -17 | 0.0 | 0.0 | 0.00 | 0.00 | 0.00 | |||
| 20260901081805 | -17 | 0.0 | 0.0 | 0.00 | 0.00 | 0.00 | |||
| 20260901081752 | -17 | 0.0 | 0.0 | 0.00 | 0.00 | 0.00 | |||
| 20260901081712 | -17 | 0.0 | 0.0 | 0.00 | 0.00 | 0.00 | |||
| 20260901081646 | -17 | 0.0 | 0.0 | 0.00 | 0.00 | 0.00 | |||
| 20260901081606 | -17 | 0.0 | 0.0 | 0.00 | 0.00 | 0.00 | |||
| 20260901081552 | -17 | 0.0 | 0.0 | 0.00 | 0.00 | 0.00 | |||
| 20260901081513 | -17 | 0.0 | 0.0 | 0.00 | 0.00 | 0.00 | |||
| 20260901081446 | -17 | 0.0 | 0.0 | 0.00 | 0.00 | 0.00 | |||
| 20260901081407 | -17 | 0.0 | 0.0 | 0.00 | 0.00 | 0.00 | |||
| 20260901081340 | -17 | 0.0 | 0.0 | 0.00 | 0.00 | 0.00 | |||
| 20260901081300 | -17 | 0.0 | 0.0 | 0.00 | 0.00 | 0.00 | |||
| 20260901081247 | -17 | 0.0 | 0.0 | 0.00 | 0.00 | 0.00 | |||
| 20260901081207 | -17 | 0.0 | 0.0 | 0.00 | 0.00 | 0.00 | |||
| 20260901081141 | -17 | 0.0 | 0.0 | 0.00 | 0.00 | 0.00 | |||
| 20260901081101 | -17 | 0.0 | 0.0 | 0.00 | 0.00 | 0.00 | |||
| 20260901081048 | -17 | 0.0 | 0.0 | 0.00 | 0.00 | 0.00 | |||
| 20260901081008 | -17 | 0.0 | 0.0 | 0.00 | 0.00 | 0.00 | |||
| 20260901080942 | -17 | 0.0 | 0.0 | 0.00 | 0.00 | 0.00 | |||
| 20260901080902 | -17 | 0.0 | 0.0 | 0.00 | 0.00 | 0.00 | |||
| 20260901080849 | -17 | 0.0 | 0.0 | 0.00 | 0.00 | 0.00 | |||
| 20260901080809 | -17 | 0.0 | 0.0 | 0.00 | 0.00 | 0.00 | |||
| 20260901080742 | -17 | 0.0 | 0.0 | 0.00 | 0.00 | 0.00 | |||
| 20260901080703 | -17 | 0.0 | 0.0 | 0.00 | 0.00 | 0.00 | |||
| 20260901080650 | -17 | 0.0 | 0.0 | 0.00 | 0.00 | 0.00 | |||
| 20260901080610 | -17 | 0.0 | 0.0 | 0.00 | 0.00 | 0.00 | |||
| 20260901080543 | -17 | 0.0 | 0.0 | 0.00 | 0.00 | 0.00 | |||
| 20260901080504 | -17 | 0.0 | 0.0 | 0.00 | 0.00 | 0.00 | |||
| 20260901080451 | -17 | 0.0 | 0.0 | 0.00 | 0.00 | 0.00 | |||
| 20260901080411 | -17 | 0.0 | 0.0 | 0.00 | 0.00 | 0.00 | |||
| 20260901080344 | -17 | 0.0 | 0.0 | 0.00 | 0.00 | 0.00 | |||
| 20260901080305 | -17 | 0.0 | 0.0 | 0.00 | 0.00 | 0.00 | |||
| 20260901080251 | -17 | 0.0 | 0.0 | 0.00 | 0.00 | 0.00 | |||
| 20260901080212 | -17 | 0.0 | 0.0 | 0.00 | 0.00 | 0.00 | |||
| 20260901080145 | -17 | 0.0 | 0.0 | 0.00 | 0.00 | 0.00 | |||
| 20260901080106 | -17 | 0.0 | 0.0 | 0.00 | 0.00 | 0.00 | |||
| 20260901080052 | -17 | 0.0 | 0.0 | 0.00 | 0.00 | 0.00 | |||
| 20260901080013 | -17 | 0.0 | 0.0 | 0.00 | 0.00 | 0.00 | |||
| 20260901075946 | -17 | 0.0 | 0.0 | 0.00 | 0.00 | 0.00 | |||
| 20260901075906 | -17 | 0.0 | 0.0 | 0.00 | 0.00 | 0.00 | |||
| 20260901075840 | -17 | 0.0 | 0.0 | 0.00 | 0.00 | 0.00 | |||
| 20260901075800 | -17 | 0.0 | 0.0 | 0.00 | 0.00 | 0.00 | |||
| 20260901075747 | -17 | 0.0 | 0.0 | 0.00 | 0.00 | 0.00 | |||
| 20260901075708 | -17 | 0.0 | 0.0 | 0.00 | 0.00 | 0.00 | |||
| 20260901075641 | -17 | 0.0 | 0.0 | 0.00 | 0.00 | 0.00 | |||
| 20260901075601 | -17 | 0.0 | 0.0 | 0.00 | 0.00 | 0.00 | |||
| 20260901075548 | -17 | 0.0 | 0.0 | 0.00 | 0.00 | 0.00 | |||
| 20260901075508 | -17 | 0.0 | 0.0 | 0.00 | 0.00 | 0.00 | |||
| 20260901075442 | -17 | 0.0 | 0.0 | 0.00 | 0.00 | 0.00 | |||
| 20260901075402 | -17 | 0.0 | 0.0 | 0.00 | 0.00 | 0.00 | |||
| 20260901075349 | -17 | 0.0 | 0.0 | 0.00 | 0.00 | 0.00 | |||
| 20260901075309 | -17 | 0.0 | 0.0 | 0.00 | 0.00 | 0.00 | |||
| 20260901075242 | -17 | 0.0 | 0.0 | 0.00 | 0.00 | 0.00 | |||
| 20260901075203 | -17 | 0.0 | 0.0 | 0.00 | 0.00 | 0.00 | |||
| 20260901075150 | -17 | 0.0 | 0.0 | 0.00 | 0.00 | 0.00 | |||
| 20260901075110 | -17 | 0.0 | 0.0 | 0.00 | 0.00 | 0.00 | |||
| 20260901075043 | -17 | 0.0 | 0.0 | 0.00 | 0.00 | 0.00 | |||
| 20260901075004 | -17 | 0.0 | 0.0 | 0.00 | 0.00 | 0.00 | |||
| 20260901074951 | -17 | 0.0 | 0.0 | 0.00 | 0.00 | 0.00 | |||
| 20260901074911 | -17 | 0.0 | 0.0 | 0.00 | 0.00 | 0.00 | |||
| 20260901074844 | -17 | 0.0 | 0.0 | 0.00 | 0.00 | 0.00 | |||
| 20260901074805 | -17 | 0.0 | 0.0 | 0.00 | 0.00 | 0.00 | |||
| 20260901074751 | -17 | 0.0 | 0.0 | 0.00 | 0.00 | 0.00 | |||
| 20260901074711 | -17 | 0.0 | 0.0 | 0.00 | 0.00 | 0.00 | |||
| 20260901074645 | -17 | 0.0 | 0.0 | 0.00 | 0.00 | 0.00 | |||
| 20260901074605 | -17 | 0.0 | 0.0 | 0.00 | 0.00 | 0.00 | |||
| 20260901074552 | -17 | 0.0 | 0.0 | 0.00 | 0.00 | 0.00 | |||
| 20260901074512 | -17 | 0.0 | 0.0 | 0.00 | 0.00 | 0.00 | |||
| 20260901074446 | -17 | 0.0 | 0.0 | 0.00 | 0.00 | 0.00 | |||
| 20260901074406 | -17 | 0.0 | 0.0 | 0.00 | 0.00 | 0.00 | |||
| 20260901074340 | -17 | 0.0 | 0.0 | 0.00 | 0.00 | 0.00 | |||
| 20260901074300 | -17 | 0.0 | 0.0 | 0.00 | 0.00 | 0.00 | |||
| 20260901074247 | -17 | 0.0 | 0.0 | 0.00 | 0.00 | 0.00 | |||
| 20260901074207 | -17 | 0.0 | 0.0 | 0.00 | 0.00 | 0.00 | |||
| 20260901074141 | -17 | 0.0 | 0.0 | 0.00 | 0.00 | 0.00 | |||
| 20260901074101 | -17 | 0.0 | 0.0 | 0.00 | 0.00 | 0.00 | |||
| 20260901074048 | -17 | 0.0 | 0.0 | 0.00 | 0.00 | 0.00 | |||
| 20260901074008 | -17 | 0.0 | 0.0 | 0.00 | 0.00 | 0.00 | |||
| 20260901073942 | -17 | 0.0 | 0.0 | 0.00 | 0.00 | 0.00 | |||
| 20260901073902 | -17 | 0.0 | 0.0 | 0.00 | 0.00 | 0.00 | |||
| 20260901073849 | -17 | 0.0 | 0.0 | 0.00 | 0.00 | 0.00 | |||
| 20260901073809 | -17 | 0.0 | 0.0 | 0.00 | 0.00 | 0.00 | |||
| 20260901073743 | -17 | 0.0 | 0.0 | 0.00 | 0.00 | 0.00 | |||
| 20260901073703 | -17 | 0.0 | 0.0 | 0.00 | 0.00 | 0.00 | |||
| 20260901073650 | -17 | 0.0 | 0.0 | 0.00 | 0.00 | 0.00 | |||
| 20260901073610 | -17 | 0.0 | 0.0 | 0.00 | 0.00 | 0.00 | |||
| 20260901073543 | -17 | 0.0 | 0.0 | 0.00 | 0.00 | 0.00 | |||
| 20260901073504 | -17 | 0.0 | 0.0 | 0.00 | 0.00 | 0.00 | |||
| 20260901073451 | -17 | 0.0 | 0.0 | 0.00 | 0.00 | 0.00 | |||
| 20260901073411 | -17 | 0.0 | 0.0 | 0.00 | 0.00 | 0.00 | |||
| 20260901073344 | -17 | 0.0 | 0.0 | 0.00 | 0.00 | 0.00 | |||
| 20260901073305 | -17 | 0.0 | 0.0 | 0.00 | 0.00 | 0.00 | |||
| 20260901073251 | -17 | 0.0 | 0.0 | 0.00 | 0.00 | 0.00 | |||
| 20260901073212 | -17 | 0.0 | 0.0 | 0.00 | 0.00 | 0.00 | |||
| 20260901073145 | -17 | 0.0 | 0.0 | 0.00 | 0.00 | 0.00 | |||
| 20260901073105 | -17 | 0.0 | 0.0 | 0.00 | 0.00 | 0.00 | |||
| 20260901073052 | -17 | 0.0 | 0.0 | 0.00 | 0.00 | 0.00 | |||
| 20260901073012 | -17 | 0.0 | 0.0 | 0.00 | 0.00 | 0.00 | |||
| 20260901072946 | -17 | 0.0 | 0.0 | 0.00 | 0.00 | 0.00 | |||
| 20260901072906 | -17 | 0.0 | 0.0 | 0.00 | 0.00 | 0.00 | |||
| 20260901072840 | -17 | 0.0 | 0.0 | 0.00 | 0.00 | 0.00 | |||
| 20260901072800 | -17 | 0.0 | 0.0 | 0.00 | 0.00 | 0.00 | |||
| 20260901072747 | -17 | 0.0 | 0.0 | 0.00 | 0.00 | 0.00 | |||
| 20260901072707 | -17 | 0.0 | 0.0 | 0.00 | 0.00 | 0.00 | |||
| 20260901072640 | -17 | 0.0 | 0.0 | 0.00 | 0.00 | 0.00 | |||
| 20260901072601 | -17 | 0.0 | 0.0 | 0.00 | 0.00 | 0.00 | |||
| 20260901072548 | -17 | 0.0 | 0.0 | 0.00 | 0.00 | 0.00 | |||
| 20260901072508 | -17 | 0.0 | 0.0 | 0.00 | 0.00 | 0.00 | |||
| 20260901072441 | -17 | 0.0 | 0.0 | 0.00 | 0.00 | 0.00 | |||
| 20260901072402 | -17 | 0.0 | 0.0 | 0.00 | 0.00 | 0.00 | |||
| 20260901072349 | -17 | 0.0 | 0.0 | 0.00 | 0.00 | 0.00 | |||
| 20260901072309 | -17 | 0.0 | 0.0 | 0.00 | 0.00 | 0.00 | |||
| 20260901072242 | -17 | 0.0 | 0.0 | 0.00 | 0.00 | 0.00 | |||
| 20260901072203 | -17 | 0.0 | 0.0 | 0.00 | 0.00 | 0.00 | |||
| 20260901072149 | -17 | 0.0 | 0.0 | 0.00 | 0.00 | 0.00 | |||
| 20260901072109 | -17 | 0.0 | 0.0 | 0.00 | 0.00 | 0.00 | |||
| 20260901072043 | -17 | 0.0 | 0.0 | 0.00 | 0.00 | 0.00 | |||
| 20260901072003 | -17 | 0.0 | 0.0 | 0.00 | 0.00 | 0.00 | |||
| 20260901071950 | -17 | 0.0 | 0.0 | 0.00 | 0.00 | 0.00 | |||
| 20260901071910 | -17 | 0.0 | 0.0 | 0.00 | 0.00 | 0.00 | |||
| 20260901071844 | -17 | 0.0 | 0.0 | 0.00 | 0.00 | 0.00 | |||
| 20260901071804 | -17 | 0.0 | 0.0 | 0.00 | 0.00 | 0.00 | |||
| 20260901071751 | -17 | 0.0 | 0.0 | 0.00 | 0.00 | 0.00 | |||
| 20260901071711 | -17 | 0.0 | 0.0 | 0.00 | 0.00 | 0.00 | |||
| 20260901071645 | -17 | 0.0 | 0.0 | 0.00 | 0.00 | 0.00 | |||
| 20260901071605 | -17 | 0.0 | 0.0 | 0.00 | 0.00 | 0.00 | |||
| 20260901071552 | -17 | 0.0 | 0.0 | 0.00 | 0.00 | 0.00 | |||
| 20260901071512 | -17 | 0.0 | 0.0 | 0.00 | 0.00 | 0.00 | |||
| 20260901071445 | -17 | 0.0 | 0.0 | 0.00 | 0.00 | 0.00 | |||
| 20260901071406 | -17 | 0.0 | 0.0 | 0.00 | 0.00 | 0.00 | |||
| 20260901071352 | -17 | 0.0 | 0.0 | 0.00 | 0.00 | 0.00 | |||
| 20260901071313 | -17 | 0.0 | 0.0 | 0.00 | 0.00 | 0.00 | |||
| 20260901071246 | -17 | 0.0 | 0.0 | 0.00 | 0.00 | 0.00 | |||
| 20260901071207 | -17 | 0.0 | 0.0 | 0.00 | 0.00 | 0.00 | |||
| 20260901071140 | -17 | 0.0 | 0.0 | 0.00 | 0.00 | 0.00 | |||
| 20260901071100 | -17 | 0.0 | 0.0 | 0.00 | 0.00 | 0.00 | |||
| 20260901071047 | -17 | 0.0 | 0.0 | 0.00 | 0.00 | 0.00 | |||
| 20260901071008 | -17 | 0.0 | 0.0 | 0.00 | 0.00 | 0.00 | |||
| 20260901070941 | -17 | 0.0 | 0.0 | 0.00 | 0.00 | 0.00 | |||
| 20260901070901 | -17 | 0.0 | 0.0 | 0.00 | 0.00 | 0.00 | |||
| 20260901070848 | -17 | 0.0 | 0.0 | 0.00 | 0.00 | 0.00 | |||
| 20260901070808 | -17 | 0.0 | 0.0 | 0.00 | 0.00 | 0.00 | |||
| 20260901070742 | -17 | 0.0 | 0.0 | 0.00 | 0.00 | 0.00 | |||
| 20260901070702 | -17 | 0.0 | 0.0 | 0.00 | 0.00 | 0.00 | |||
| 20260901070649 | -17 | 0.0 | 0.0 | 0.00 | 0.00 | 0.00 | |||
| 20260901070609 | -17 | 0.0 | 0.0 | 0.00 | 0.00 | 0.00 | |||
| 20260901070543 | -17 | 0.0 | 0.0 | 0.00 | 0.00 | 0.00 | |||
| 20260901070503 | -17 | 0.0 | 0.0 | 0.00 | 0.00 | 0.00 | |||
| 20260901070449 | -17 | 0.0 | 0.0 | 0.00 | 0.00 | 0.00 | |||
| 20260901070410 | -17 | 0.0 | 0.0 | 0.00 | 0.00 | 0.00 | |||
| 20260901070343 | -17 | 0.0 | 0.0 | 0.00 | 0.00 | 0.00 | |||
| 20260901070304 | -17 | 0.0 | 0.0 | 0.00 | 0.00 | 0.00 | |||
| 20260901070250 | -17 | 0.0 | 0.0 | 0.00 | 0.00 | 0.00 | |||
| 20260901070211 | -17 | 0.0 | 0.0 | 0.00 | 0.00 | 0.00 | |||
| 20260901070144 | -17 | 0.0 | 0.0 | 0.00 | 0.00 | 0.00 | |||
| 20260901070104 | -17 | 0.0 | 0.0 | 0.00 | 0.00 | 0.00 | |||
| 20260901070051 | -17 | 0.0 | 0.0 | 0.00 | 0.00 | 0.00 | |||
| 20260901070011 | -17 | 0.0 | 0.0 | 0.00 | 0.00 | 0.00 | |||
| 20260901065945 | -17 | 0.0 | 0.0 | 0.00 | 0.00 | 0.00 | |||
| 20260901065905 | -17 | 0.0 | 0.0 | 0.00 | 0.00 | 0.00 | |||
| 20260901065852 | -17 | 0.0 | 0.0 | 0.00 | 0.00 | 0.00 | |||
| 20260901065812 | -17 | 0.0 | 0.0 | 0.00 | 0.00 | 0.00 | |||
| 20260901065746 | -17 | 0.0 | 0.0 | 0.00 | 0.00 | 0.00 | |||
| 20260901065706 | -17 | 0.0 | 0.0 | 0.00 | 0.00 | 0.00 | |||
| 20260901065653 | -17 | 0.0 | 0.0 | 0.00 | 0.00 | 0.00 | |||
| 20260901065613 | -17 | 0.0 | 0.0 | 0.00 | 0.00 | 0.00 | |||
| 20260901065547 | -17 | 0.0 | 0.0 | 0.00 | 0.00 | 0.00 | |||
| 20260901065507 | -17 | 0.0 | 0.0 | 0.00 | 0.00 | 0.00 | |||
| 20260901065440 | -17 | 0.0 | 0.0 | 0.00 | 0.00 | 0.00 | |||
| 20260901065401 | -17 | 0.0 | 0.0 | 0.00 | 0.00 | 0.00 | |||
| 20260901065348 | -17 | 0.0 | 0.0 | 0.00 | 0.00 | 0.00 | |||
| 20260901065308 | -17 | 0.0 | 0.0 | 0.00 | 0.00 | 0.00 | |||
| 20260901065241 | -17 | 0.0 | 0.0 | 0.00 | 0.00 | 0.00 | |||
| 20260901065202 | -17 | 0.0 | 0.0 | 0.00 | 0.00 | 0.00 | |||
| 20260901065148 | -17 | 0.0 | 0.0 | 0.00 | 0.00 | 0.00 | |||
| 20260901065109 | -17 | 0.0 | 0.0 | 0.00 | 0.00 | 0.00 | |||
| 20260901065042 | -17 | 0.0 | 0.0 | 0.00 | 0.00 | 0.00 | |||
| 20260901065002 | -17 | 0.0 | 0.0 | 0.00 | 0.00 | 0.00 | |||
| 20260901064949 | -17 | 0.0 | 0.0 | 0.00 | 0.00 | 0.00 | |||
| 20260901064910 | -17 | 0.0 | 0.0 | 0.00 | 0.00 | 0.00 | |||
| 20260901064843 | -17 | 0.0 | 0.0 | 0.00 | 0.00 | 0.00 | |||
| 20260901064803 | -17 | 0.0 | 0.0 | 0.00 | 0.00 | 0.00 | |||
| 20260901064750 | -17 | 0.0 | 0.0 | 0.00 | 0.00 | 0.00 | |||
| 20260901064710 | -17 | 0.0 | 0.0 | 0.00 | 0.00 | 0.00 | |||
| 20260901064644 | -17 | 0.0 | 0.0 | 0.00 | 0.00 | 0.00 | |||
| 20260901064604 | -17 | 0.0 | 0.0 | 0.00 | 0.00 | 0.00 | |||
| 20260901064551 | -17 | 0.0 | 0.0 | 0.00 | 0.00 | 0.00 | |||
| 20260901064511 | -17 | 0.0 | 0.0 | 0.00 | 0.00 | 0.00 | |||
| 20260901064445 | -17 | 0.0 | 0.0 | 0.00 | 0.00 | 0.00 | |||
| 20260901064405 | -17 | 0.0 | 0.0 | 0.00 | 0.00 | 0.00 | |||
| 20260901064352 | -17 | 0.0 | 0.0 | 0.00 | 0.00 | 0.00 | |||
| 20260901064312 | -17 | 0.0 | 0.0 | 0.00 | 0.00 | 0.00 | |||
| 20260901064245 | -17 | 0.0 | 0.0 | 0.00 | 0.00 | 0.00 | |||
| 20260901064205 | -17 | 0.0 | 0.0 | 0.00 | 0.00 | 0.00 | |||
| 20260901064152 | -17 | 0.0 | 0.0 | 0.00 | 0.00 | 0.00 | |||
| 20260901064113 | -17 | 0.0 | 0.0 | 0.00 | 0.00 | 0.00 | |||
| 20260901064046 | -17 | 0.0 | 0.0 | 0.00 | 0.00 | 0.00 | |||
| 20260901064006 | -17 | 0.0 | 0.0 | 0.00 | 0.00 | 0.00 | |||
| 20260901063940 | -17 | 0.0 | 0.0 | 0.00 | 0.00 | 0.00 | |||
| 20260901063900 | -17 | 0.0 | 0.0 | 0.00 | 0.00 | 0.00 | |||
| 20260901063847 | -17 | 0.0 | 0.0 | 0.00 | 0.00 | 0.00 | |||
| 20260901063807 | -17 | 0.0 | 0.0 | 0.00 | 0.00 | 0.00 | |||
| 20260901063741 | -17 | 0.0 | 0.0 | 0.00 | 0.00 | 0.00 | |||
| 20260901063701 | -17 | 0.0 | 0.0 | 0.00 | 0.00 | 0.00 | |||
| 20260901063648 | -17 | 0.0 | 0.0 | 0.00 | 0.00 | 0.00 | |||
| 20260901063608 | -17 | 0.0 | 0.0 | 0.00 | 0.00 | 0.00 | |||
| 20260901063542 | -17 | 0.0 | 0.0 | 0.00 | 0.00 | 0.00 | |||
| 20260901063502 | -17 | 0.0 | 0.0 | 0.00 | 0.00 | 0.00 | |||
| 20260901063448 | -17 | 0.0 | 0.0 | 0.00 | 0.00 | 0.00 | |||
| 20260901063409 | -17 | 0.0 | 0.0 | 0.00 | 0.00 | 0.00 | |||
| 20260901063342 | -17 | 0.0 | 0.0 | 0.00 | 0.00 | 0.00 | |||
| 20260901063303 | -17 | 0.0 | 0.0 | 0.00 | 0.00 | 0.00 | |||
| 20260901063249 | -17 | 0.0 | 0.0 | 0.00 | 0.00 | 0.00 | |||
| 20260901063210 | -17 | 0.0 | 0.0 | 0.00 | 0.00 | 0.00 | |||
| 20260901063143 | -17 | 0.0 | 0.0 | 0.00 | 0.00 | 0.00 | |||
| 20260901063103 | -17 | 0.0 | 0.0 | 0.00 | 0.00 | 0.00 | |||
| 20260901063050 | -17 | 0.0 | 0.0 | 0.00 | 0.00 | 0.00 | |||
| 20260901063011 | -17 | 0.0 | 0.0 | 0.00 | 0.00 | 0.00 | |||
| 20260901062944 | -17 | 0.0 | 0.0 | 0.00 | 0.00 | 0.00 | |||
| 20260901062905 | -17 | 0.0 | 0.0 | 0.00 | 0.00 | 0.00 | |||
| 20260901062851 | -17 | 0.0 | 0.0 | 0.00 | 0.00 | 0.00 | |||
| 20260901062812 | -17 | 0.0 | 0.0 | 0.00 | 0.00 | 0.00 | |||
| 20260901062745 | -17 | 0.0 | 0.0 | 0.00 | 0.00 | 0.00 | |||
| 20260901062705 | -17 | 0.0 | 0.0 | 0.00 | 0.00 | 0.00 | |||
| 20260901062652 | -17 | 0.0 | 0.0 | 0.00 | 0.00 | 0.00 | |||
| 20260901062612 | -17 | 0.0 | 0.0 | 0.00 | 0.00 | 0.00 | |||
| 20260901062546 | -17 | 0.0 | 0.0 | 0.00 | 0.00 | 0.00 | |||
| 20260901062506 | -17 | 0.0 | 0.0 | 0.00 | 0.00 | 0.00 | |||
| 20260901062440 | -17 | 0.0 | 0.0 | 0.00 | 0.00 | 0.00 | |||
| 20260901062400 | -17 | 0.0 | 0.0 | 0.00 | 0.00 | 0.00 | |||
| 20260901062347 | -17 | 0.0 | 0.0 | 0.00 | 0.00 | 0.00 | |||
| 20260901062310 | -17 | 0.0 | 0.0 | 0.00 | 0.00 | 0.00 | |||
| 20260901062240 | -17 | 0.0 | 0.0 | 0.00 | 0.00 | 0.00 | |||
| 20260901062201 | -17 | 0.0 | 0.0 | 0.00 | 0.00 | 0.00 | |||
| 20260901062147 | -17 | 0.0 | 0.0 | 0.00 | 0.00 | 0.00 | |||
| 20260901062108 | -17 | 0.0 | 0.0 | 0.00 | 0.00 | 0.00 | |||
| 20260901062041 | -17 | 0.0 | 0.0 | 0.00 | 0.00 | 0.00 | |||
| 20260901062001 | -17 | 0.0 | 0.0 | 0.00 | 0.00 | 0.00 | |||
| 20260901061948 | -17 | 0.0 | 0.0 | 0.00 | 0.00 | 0.00 | |||
| 20260901061909 | -17 | 0.0 | 0.0 | 0.00 | 0.00 | 0.00 | |||
| 20260901061842 | -17 | 0.0 | 0.0 | 0.00 | 0.00 | 0.00 | |||
| 20260901061802 | -17 | 0.0 | 0.0 | 0.00 | 0.00 | 0.00 | |||
| 20260901061749 | -17 | 0.0 | 0.0 | 0.00 | 0.00 | 0.00 | |||
| 20260901061710 | -17 | 0.0 | 0.0 | 0.00 | 0.00 | 0.00 | |||
| 20260901061643 | -17 | 0.0 | 0.0 | 0.00 | 0.00 | 0.00 | |||
| 20260901061603 | -17 | 0.0 | 0.0 | 0.00 | 0.00 | 0.00 | |||
| 20260901061550 | -17 | 0.0 | 0.0 | 0.00 | 0.00 | 0.00 | |||
| 20260901061510 | -17 | 0.0 | 0.0 | 0.00 | 0.00 | 0.00 | |||
| 20260901061444 | -17 | 0.0 | 0.0 | 0.00 | 0.00 | 0.00 | |||
| 20260901061404 | -17 | 0.0 | 0.0 | 0.00 | 0.00 | 0.00 | |||
| 20260901061351 | -17 | 0.0 | 0.0 | 0.00 | 0.00 | 0.00 | |||
| 20260901061311 | -17 | 0.0 | 0.0 | 0.00 | 0.00 | 0.00 | |||
| 20260901061245 | -17 | 0.0 | 0.0 | 0.00 | 0.00 | 0.00 | |||
| 20260901061205 | -17 | 0.0 | 0.0 | 0.00 | 0.00 | 0.00 | |||
| 20260901061152 | -17 | 0.0 | 0.0 | 0.00 | 0.00 | 0.00 | |||
| 20260901061112 | -17 | 0.0 | 0.0 | 0.00 | 0.00 | 0.00 | |||
| 20260901061046 | -17 | 0.0 | 0.0 | 0.00 | 0.00 | 0.00 | |||
| 20260901061006 | -17 | 0.0 | 0.0 | 0.00 | 0.00 | 0.00 | |||
| 20260901060940 | -17 | 0.0 | 0.0 | 0.00 | 0.00 | 0.00 | |||
| 20260901060900 | -17 | 0.0 | 0.0 | 0.00 | 0.00 | 0.00 | |||
| 20260901060847 | -17 | 0.0 | 0.0 | 0.00 | 0.00 | 0.00 | |||
| 20260901060807 | -17 | 0.0 | 0.0 | 0.00 | 0.00 | 0.00 | |||
| 20260901060741 | -17 | 0.0 | 0.0 | 0.00 | 0.00 | 0.00 | |||
| 20260901060701 | -17 | 0.0 | 0.0 | 0.00 | 0.00 | 0.00 | |||
| 20260901060648 | -17 | 0.0 | 0.0 | 0.00 | 0.00 | 0.00 | |||
| 20260901060608 | -17 | 0.0 | 0.0 | 0.00 | 0.00 | 0.00 | |||
| 20260901060541 | -17 | 0.0 | 0.0 | 0.00 | 0.00 | 0.00 | |||
| 20260901060502 | -17 | 0.0 | 0.0 | 0.00 | 0.00 | 0.00 | |||
| 20260901060448 | -17 | 0.0 | 0.0 | 0.00 | 0.00 | 0.00 | |||
| 20260901060409 | -17 | 0.0 | 0.0 | 0.00 | 0.00 | 0.00 | |||
| 20260901060342 | -17 | 0.0 | 0.0 | 0.00 | 0.00 | 0.00 | |||
| 20260901060303 | -17 | 0.0 | 0.0 | 0.00 | 0.00 | 0.00 | |||
| 20260901060249 | -17 | 0.0 | 0.0 | 0.00 | 0.00 | 0.00 | |||
| 20260901060210 | -17 | 0.0 | 0.0 | 0.00 | 0.00 | 0.00 | |||
| 20260901060143 | -17 | 0.0 | 0.0 | 0.00 | 0.00 | 0.00 | |||
| 20260901060104 | -17 | 0.0 | 0.0 | 0.00 | 0.00 | 0.00 | |||
| 20260901060050 | -17 | 0.0 | 0.0 | 0.00 | 0.00 | 0.00 | |||
| 20260901060011 | -17 | 0.0 | 0.0 | 0.00 | 0.00 | 0.00 | |||
| 20260901055944 | -17 | 0.0 | 0.0 | 0.00 | 0.00 | 0.00 | |||
| 20260901055904 | -17 | 0.0 | 0.0 | 0.00 | 0.00 | 0.00 | |||
| 20260901055851 | -17 | 0.0 | 0.0 | 0.00 | 0.00 | 0.00 | |||
| 20260901055811 | -17 | 0.0 | 0.0 | 0.00 | 0.00 | 0.00 | |||
| 20260901055745 | -17 | 0.0 | 0.0 | 0.00 | 0.00 | 0.00 | |||
| 20260901055705 | -17 | 0.0 | 0.0 | 0.00 | 0.00 | 0.00 | |||
| 20260901055652 | -17 | 0.0 | 0.0 | 0.00 | 0.00 | 0.00 | |||
| 20260901055612 | -17 | 0.0 | 0.0 | 0.00 | 0.00 | 0.00 | |||
| 20260901055545 | -17 | 0.0 | 0.0 | 0.00 | 0.00 | 0.00 | |||
| 20260901055506 | -17 | 0.0 | 0.0 | 0.00 | 0.00 | 0.00 | |||
| 20260901055452 | -17 | 0.0 | 0.0 | 0.00 | 0.00 | 0.00 | |||
| 20260901055413 | -17 | 0.0 | 0.0 | 0.00 | 0.00 | 0.00 | |||
| 20260901055346 | -17 | 0.0 | 0.0 | 0.00 | 0.00 | 0.00 | |||
| 20260901055306 | -17 | 0.0 | 0.0 | 0.00 | 0.00 | 0.00 | |||
| 20260901055240 | -17 | 0.0 | 0.0 | 0.00 | 0.00 | 0.00 | |||
| 20260901055200 | -17 | 0.0 | 0.0 | 0.00 | 0.00 | 0.00 | |||
| 20260901055147 | -17 | 0.0 | 0.0 | 0.00 | 0.00 | 0.00 | |||
| 20260901055107 | -17 | 0.0 | 0.0 | 0.00 | 0.00 | 0.00 | |||
| 20260901055041 | -17 | 0.0 | 0.0 | 0.00 | 0.00 | 0.00 | |||
| 20260901055001 | -17 | 0.0 | 0.0 | 0.00 | 0.00 | 0.00 | |||
| 20260901054948 | -17 | 0.0 | 0.0 | 0.00 | 0.00 | 0.00 | |||
| 20260901054908 | -17 | 0.0 | 0.0 | 0.00 | 0.00 | 0.00 | |||
| 20260901054842 | -17 | 0.0 | 0.0 | 0.00 | 0.00 | 0.00 | |||
| 20260901054802 | -17 | 0.0 | 0.0 | 0.00 | 0.00 | 0.00 | |||
| 20260901054749 | -17 | 0.0 | 0.0 | 0.00 | 0.00 | 0.00 | |||
| 20260901054709 | -17 | 0.0 | 0.0 | 0.00 | 0.00 | 0.00 | |||
| 20260901054643 | -17 | 0.0 | 0.0 | 0.00 | 0.00 | 0.00 | |||
| 20260901054603 | -17 | 0.0 | 0.0 | 0.00 | 0.00 | 0.00 | |||
| 20260901054549 | -17 | 0.0 | 0.0 | 0.00 | 0.00 | 0.00 | |||
| 20260901054510 | -17 | 0.0 | 0.0 | 0.00 | 0.00 | 0.00 | |||
| 20260901054443 | -17 | 0.0 | 0.0 | 0.00 | 0.00 | 0.00 | |||
| 20260901054404 | -17 | 0.0 | 0.0 | 0.00 | 0.00 | 0.00 | |||
| 20260901054350 | -17 | 0.0 | 0.0 | 0.00 | 0.00 | 0.00 | |||
| 20260901054310 | -17 | 0.0 | 0.0 | 0.00 | 0.00 | 0.00 | |||
| 20260901054244 | -17 | 0.0 | 0.0 | 0.00 | 0.00 | 0.00 | |||
| 20260901054204 | -17 | 0.0 | 0.0 | 0.00 | 0.00 | 0.00 | |||
| 20260901054151 | -17 | 0.0 | 0.0 | 0.00 | 0.00 | 0.00 | |||
| 20260901054111 | -17 | 0.0 | 0.0 | 0.00 | 0.00 | 0.00 | |||
| 20260901054045 | -17 | 0.0 | 0.0 | 0.00 | 0.00 | 0.00 | |||
| 20260901054005 | -17 | 0.0 | 0.0 | 0.00 | 0.00 | 0.00 | |||
| 20260901053952 | -17 | 0.0 | 0.0 | 0.00 | 0.00 | 0.00 | |||
| 20260901053912 | -17 | 0.0 | 0.0 | 0.00 | 0.00 | 0.00 | |||
| 20260901053846 | -17 | 0.0 | 0.0 | 0.00 | 0.00 | 0.00 | |||
| 20260901053806 | -17 | 0.0 | 0.0 | 0.00 | 0.00 | 0.00 | |||
| 20260901053752 | -17 | 0.0 | 0.0 | 0.00 | 0.00 | 0.00 | |||
| 20260901053713 | -17 | 0.0 | 0.0 | 0.00 | 0.00 | 0.00 | |||
| 20260901053646 | -17 | 0.0 | 0.0 | 0.00 | 0.00 | 0.00 | |||
| 20260901053607 | -17 | 0.0 | 0.0 | 0.00 | 0.00 | 0.00 | |||
| 20260901053540 | -17 | 0.0 | 0.0 | 0.00 | 0.00 | 0.00 | |||
| 20260901053500 | -17 | 0.0 | 0.0 | 0.00 | 0.00 | 0.00 | |||
| 20260901053447 | -17 | 0.0 | 0.0 | 0.00 | 0.00 | 0.00 | |||
| 20260901053407 | -17 | 0.0 | 0.0 | 0.00 | 0.00 | 0.00 | |||
| 20260901053341 | -17 | 0.0 | 0.0 | 0.00 | 0.00 | 0.00 | |||
| 20260901053301 | -17 | 0.0 | 0.0 | 0.00 | 0.00 | 0.00 | |||
| 20260901053248 | -17 | 0.0 | 0.0 | 0.00 | 0.00 | 0.00 | |||
| 20260901053208 | -17 | 0.0 | 0.0 | 0.00 | 0.00 | 0.00 | |||
| 20260901053141 | -17 | 0.0 | 0.0 | 0.00 | 0.00 | 0.00 | |||
| 20260901053102 | -17 | 0.0 | 0.0 | 0.00 | 0.00 | 0.00 | |||
| 20260901053049 | -17 | 0.0 | 0.0 | 0.00 | 0.00 | 0.00 | |||
| 20260901053009 | -17 | 0.0 | 0.0 | 0.00 | 0.00 | 0.00 | |||
| 20260901052942 | -17 | 0.0 | 0.0 | 0.00 | 0.00 | 0.00 | |||
| 20260901052903 | -17 | 0.0 | 0.0 | 0.00 | 0.00 | 0.00 | |||
| 20260901052850 | -17 | 0.0 | 0.0 | 0.00 | 0.00 | 0.00 | |||
| 20260901052810 | -17 | 0.0 | 0.0 | 0.00 | 0.00 | 0.00 | |||
| 20260901052743 | -17 | 0.0 | 0.0 | 0.00 | 0.00 | 0.00 | |||
| 20260901052705 | -17 | 0.0 | 0.0 | 0.00 | 1.27 | 0.00 | |||
| 20260901052703 | -17 | 0.0 | 0.0 | 0.00 | 0.00 | 0.00 | |||
| 20260901052650 | -17 | 0.0 | 0.0 | 0.00 | 0.00 | 0.00 | |||
| 20260901052610 | -17 | 0.0 | 0.0 | 0.00 | 0.00 | 0.00 | |||
| 20260901052544 | -17 | 0.0 | 0.0 | 0.00 | 0.00 | 0.00 | |||
| 20260901052504 | -17 | 0.0 | 0.0 | 0.00 | 0.00 | 0.00 | |||
| 20260901052451 | -17 | 0.0 | 0.0 | 0.00 | 0.00 | 0.00 | |||
| 20260901052411 | -17 | 0.0 | 0.0 | 0.00 | 0.00 | 0.00 | |||
| 20260901052345 | -17 | 0.0 | 0.0 | 0.00 | 0.00 | 0.00 | |||
| 20260901052307 | -17 | 0.0 | 0.0 | 0.00 | 0.00 | 0.00 | |||
| 20260901052252 | -17 | 0.0 | 0.0 | 0.00 | 0.00 | 0.00 | |||
| 20260901052212 | -17 | 0.0 | 0.0 | 0.00 | 0.00 | 0.00 | |||
| 20260901052146 | -17 | 0.0 | 0.0 | 0.00 | 0.00 | 0.00 | |||
| 20260901052106 | -17 | 0.0 | 0.0 | 0.00 | 0.00 | 0.00 | |||
| 20260901052040 | -17 | 0.0 | 0.0 | 0.00 | 0.00 | 0.00 | |||
| 20260901052000 | -17 | 0.0 | 0.0 | 0.00 | 0.00 | 0.00 | |||
| 20260901051947 | -17 | 0.0 | 0.0 | 0.00 | 0.00 | 0.00 | |||
| 20260901051907 | -17 | 0.0 | 0.0 | 0.00 | 0.00 | 0.00 | |||
| 20260901051841 | -17 | 0.0 | 0.0 | 0.00 | 0.00 | 0.00 | |||
| 20260901051801 | -17 | 0.0 | 0.0 | 0.00 | 0.00 | 0.00 | |||
| 20260901051748 | -17 | 0.0 | 0.0 | 0.00 | 0.00 | 0.00 | |||
| 20260901051708 | -17 | 0.0 | 0.0 | 0.00 | 0.00 | 0.00 | |||
| 20260901051641 | -17 | 0.0 | 0.0 | 0.00 | 0.00 | 0.00 | |||
| 20260901051602 | -17 | 0.0 | 0.0 | 0.00 | 0.00 | 0.00 | |||
| 20260901051548 | -17 | 0.0 | 0.0 | 0.00 | 0.00 | 0.00 | |||
| 20260901051508 | -17 | 0.0 | 0.0 | 0.00 | 0.00 | 0.00 | |||
| 20260901051442 | -17 | 0.0 | 0.0 | 0.00 | 0.00 | 0.00 | |||
| 20260901051402 | -17 | 0.0 | 0.0 | 0.00 | 0.00 | 0.00 | |||
| 20260901051349 | -17 | 0.0 | 0.0 | 0.00 | 0.00 | 0.00 | |||
| 20260901051309 | -17 | 0.0 | 0.0 | 0.00 | 0.00 | 0.00 | |||
| 20260901051245 | -17 | 0.0 | 0.0 | 0.00 | 0.00 | 0.00 | |||
| 20260901051203 | -17 | 0.0 | 0.0 | 0.00 | 0.00 | 0.00 | |||
| 20260901051150 | -17 | 0.0 | 0.0 | 0.00 | 0.00 | 0.00 | |||
| 20260901051110 | -17 | 0.0 | 0.0 | 0.00 | 0.00 | 0.00 | |||
| 20260901051043 | -17 | 0.0 | 0.0 | 0.00 | 0.00 | 0.00 | |||
| 20260901051004 | -17 | 0.0 | 0.0 | 0.00 | 0.00 | 0.00 | |||
| 20260901050950 | -17 | 0.0 | 0.0 | 0.00 | 0.00 | 0.00 | |||
| 20260901050911 | -17 | 0.0 | 0.0 | 0.00 | 0.00 | 0.00 | |||
| 20260901050844 | -17 | 0.0 | 0.0 | 0.00 | 0.00 | 0.00 | |||
| 20260901050805 | -17 | 0.0 | 0.0 | 0.00 | 0.00 | 0.00 | |||
| 20260901050751 | -17 | 0.0 | 0.0 | 0.00 | 0.00 | 0.00 | |||
| 20260901050711 | -17 | 0.0 | 0.0 | 0.00 | 0.00 | 0.00 | |||
| 20260901050645 | -17 | 0.0 | 0.0 | 0.00 | 0.00 | 0.00 | |||
| 20260901050605 | -17 | 0.0 | 0.0 | 0.00 | 0.00 | 0.00 | |||
| 20260901050552 | -17 | 0.0 | 0.0 | 0.00 | 0.00 | 0.00 | |||
| 20260901050512 | -17 | 0.0 | 0.0 | 0.00 | 0.00 | 0.00 | |||
| 20260901050446 | -17 | 0.0 | 0.0 | 0.00 | 0.00 | 0.00 | |||
| 20260901050406 | -17 | 0.0 | 0.0 | 0.00 | 0.00 | 0.00 | |||
| 20260901050353 | -17 | 0.0 | 0.0 | 0.00 | 0.00 | 0.00 | |||
| 20260901050313 | -17 | 0.0 | 0.0 | 0.00 | 0.00 | 0.00 | |||
| 20260901050247 | -17 | 0.0 | 0.0 | 0.00 | 0.00 | 0.00 | |||
| 20260901050207 | -17 | 0.0 | 0.0 | 0.00 | 0.00 | 0.00 | |||
| 20260901050140 | -17 | 0.0 | 0.0 | 0.00 | 0.00 | 0.00 | |||
| 20260901050101 | -17 | 0.0 | 0.0 | 0.00 | 0.00 | 0.00 | |||
| 20260901050048 | -17 | 0.0 | 0.0 | 0.00 | 0.00 | 0.00 | |||
| 20260901050008 | -17 | 0.0 | 0.0 | 0.00 | 0.00 | 0.00 | |||
| 20260901045941 | -17 | 0.0 | 0.0 | 0.00 | 0.00 | 0.00 | |||
| 20260901045902 | -17 | 0.0 | 0.0 | 0.00 | 0.00 | 0.00 | |||
| 20260901045848 | -17 | 0.0 | 0.0 | 0.00 | 0.00 | 0.00 | |||
| 20260901045809 | -17 | 0.0 | 0.0 | 0.00 | 0.00 | 0.00 | |||
| 20260901045742 | -17 | 0.0 | 0.0 | 0.00 | 0.00 | 0.00 | |||
| 20260901045703 | -17 | 0.0 | 0.0 | 0.00 | 0.00 | 0.00 | |||
| 20260901045649 | -17 | 0.0 | 0.0 | 0.00 | 0.00 | 0.00 | |||
| 20260901045610 | -17 | 0.0 | 0.0 | 0.00 | 0.00 | 0.00 | |||
| 20260901045543 | -17 | 0.0 | 0.0 | 0.00 | 0.00 | 0.00 | |||
| 20260901045503 | -17 | 0.0 | 0.0 | 0.00 | 0.00 | 0.00 | |||
| 20260901045450 | -17 | 0.0 | 0.0 | 0.00 | 0.00 | 0.00 | |||
| 20260901045410 | -17 | 0.0 | 0.0 | 0.00 | 0.00 | 0.00 | |||
| 20260901045344 | -17 | 0.0 | 0.0 | 0.00 | 0.00 | 0.00 | |||
| 20260901045306 | -17 | 0.0 | 0.0 | 0.00 | 0.00 | 0.00 | |||
| 20260901045251 | -17 | 0.0 | 0.0 | 0.00 | 0.00 | 0.00 | |||
| 20260901045211 | -17 | 0.0 | 0.0 | 0.00 | 0.00 | 0.00 | |||
| 20260901045145 | -17 | 0.0 | 0.0 | 0.00 | 0.00 | 0.00 | |||
| 20260901045105 | -17 | 0.0 | 0.0 | 0.00 | 0.00 | 0.00 | |||
| 20260901045051 | -17 | 0.0 | 0.0 | 0.00 | 0.00 | 0.00 | |||
| 20260901045012 | -17 | 0.0 | 0.0 | 0.00 | 0.00 | 0.00 | |||
| 20260901044945 | -17 | 0.0 | 0.0 | 0.00 | 0.00 | 0.00 | |||
| 20260901044906 | -17 | 0.0 | 0.0 | 0.00 | 0.00 | 0.00 | |||
| 20260901044852 | -17 | 0.0 | 0.0 | 0.00 | 0.00 | 0.00 | |||
| 20260901044813 | -17 | 0.0 | 0.0 | 0.00 | 0.00 | 0.00 | |||
| 20260901044746 | -17 | 0.0 | 0.0 | 0.00 | 0.00 | 0.00 | |||
| 20260901044706 | -17 | 0.0 | 0.0 | 0.00 | 0.00 | 0.00 | |||
| 20260901044640 | -17 | 0.0 | 0.0 | 0.00 | 0.00 | 0.00 | |||
| 20260901044600 | -17 | 0.0 | 0.0 | 0.00 | 0.00 | 0.00 | |||
| 20260901044547 | -17 | 0.0 | 0.0 | 0.00 | 0.00 | 0.00 | |||
| 20260901044507 | -17 | 0.0 | 0.0 | 0.00 | 0.00 | 0.00 | |||
| 20260901044441 | -17 | 0.0 | 0.0 | 0.00 | 0.00 | 0.00 | |||
| 20260901044401 | -17 | 0.0 | 0.0 | 0.00 | 0.00 | 0.00 | |||
| 20260901044348 | -17 | 0.0 | 0.0 | 0.00 | 0.00 | 0.00 | |||
| 20260901044308 | -17 | 0.0 | 0.0 | 0.00 | 0.00 | 0.00 | |||
| 20260901044242 | -17 | 0.0 | 0.0 | 0.00 | 0.00 | 0.00 | |||
| 20260901044202 | -17 | 0.0 | 0.0 | 0.00 | 0.00 | 0.00 | |||
| 20260901044149 | -17 | 0.0 | 0.0 | 0.00 | 0.00 | 0.00 | |||
| 20260901044109 | -17 | 0.0 | 0.0 | 0.00 | 0.00 | 0.00 | |||
| 20260901044043 | -17 | 0.0 | 0.0 | 0.00 | 0.00 | 0.00 | |||
| 20260901044003 | -17 | 0.0 | 0.0 | 0.00 | 0.00 | 0.00 | |||
| 20260901043950 | -17 | 0.0 | 0.0 | 0.00 | 0.00 | 0.00 | |||
| 20260901043910 | -17 | 0.0 | 0.0 | 0.00 | 0.00 | 0.00 | |||
| 20260901043844 | -17 | 0.0 | 0.0 | 0.00 | 0.00 | 0.00 | |||
| 20260901043804 | -17 | 0.0 | 0.0 | 0.00 | 0.00 | 0.00 | |||
| 20260901043751 | -17 | 0.0 | 0.0 | 0.00 | 0.00 | 0.00 | |||
| 20260901043711 | -17 | 0.0 | 0.0 | 0.00 | 0.00 | 0.00 | |||
| 20260901043644 | -17 | 0.0 | 0.0 | 0.00 | 0.00 | 0.00 | |||
| 20260901043605 | -17 | 0.0 | 0.0 | 0.00 | 0.00 | 0.00 | |||
| 20260901043551 | -17 | 0.0 | 0.0 | 0.00 | 0.00 | 0.00 | |||
| 20260901043512 | -17 | 0.0 | 0.0 | 0.00 | 0.00 | 0.00 | |||
| 20260901043445 | -17 | 0.0 | 0.0 | 0.00 | 0.00 | 0.00 | |||
| 20260901043406 | -17 | 0.0 | 0.0 | 0.00 | 0.00 | 0.00 | |||
| 20260901043353 | -17 | 0.0 | 0.0 | 0.00 | 0.00 | 0.00 | |||
| 20260901043313 | -17 | 0.0 | 0.0 | 0.00 | 0.00 | 0.00 | |||
| 20260901043246 | -17 | 0.0 | 0.0 | 0.00 | 0.00 | 0.00 | |||
| 20260901043207 | -17 | 0.0 | 0.0 | 0.00 | 0.00 | 0.00 | |||
| 20260901043140 | -17 | 0.0 | 0.0 | 0.00 | 0.00 | 0.00 | |||
| 20260901043100 | -17 | 0.0 | 0.0 | 0.00 | 0.00 | 0.00 | |||
| 20260901043047 | -17 | 0.0 | 0.0 | 0.00 | 0.00 | 0.00 | |||
| 20260901043007 | -17 | 0.0 | 0.0 | 0.00 | 0.00 | 0.00 | |||
| 20260901042941 | -17 | 0.0 | 0.0 | 0.00 | 0.00 | 0.00 | |||
| 20260901042901 | -17 | 0.0 | 0.0 | 0.00 | 0.00 | 0.00 | |||
| 20260901042848 | -17 | 0.0 | 0.0 | 0.00 | 0.00 | 0.00 | |||
| 20260901042808 | -17 | 0.0 | 0.0 | 0.00 | 0.00 | 0.00 | |||
| 20260901042742 | -17 | 0.0 | 0.0 | 0.00 | 0.00 | 0.00 | |||
| 20260901042702 | -17 | 0.0 | 0.0 | 0.00 | 0.00 | 0.00 | |||
| 20260901042649 | -17 | 0.0 | 0.0 | 0.00 | 0.00 | 0.00 | |||
| 20260901042609 | -17 | 0.0 | 0.0 | 0.00 | 0.00 | 0.00 | |||
| 20260901042542 | -17 | 0.0 | 0.0 | 0.00 | 0.00 | 0.00 | |||
| 20260901042503 | -17 | 0.0 | 0.0 | 0.00 | 0.00 | 0.00 | |||
| 20260901042450 | -17 | 0.0 | 0.0 | 0.00 | 0.00 | 0.00 | |||
| 20260901042410 | -17 | 0.0 | 0.0 | 0.00 | 0.00 | 0.00 | |||
| 20260901042343 | -17 | 0.0 | 0.0 | 0.00 | 0.00 | 0.00 | |||
| 20260901042306 | -17 | 0.0 | 0.0 | 0.00 | 0.00 | 0.00 | |||
| 20260901042250 | -17 | 0.0 | 0.0 | 0.00 | 0.00 | 0.00 | |||
| 20260901042211 | -17 | 0.0 | 0.0 | 0.00 | 0.00 | 0.00 | |||
| 20260901042144 | -17 | 0.0 | 0.0 | 0.00 | 0.00 | 0.00 | |||
| 20260901042104 | -17 | 0.0 | 0.0 | 0.00 | 0.00 | 0.00 | |||
| 20260901042051 | -17 | 0.0 | 0.0 | 0.00 | 0.00 | 0.00 | |||
| 20260901042012 | -17 | 0.0 | 0.0 | 0.00 | 0.00 | 0.00 | |||
| 20260901041945 | -17 | 0.0 | 0.0 | 0.00 | 0.00 | 0.00 | |||
| 20260901041905 | -17 | 0.0 | 0.0 | 0.00 | 0.00 | 0.00 | |||
| 20260901041852 | -17 | 0.0 | 0.0 | 0.00 | 0.00 | 0.00 | |||
| 20260901041812 | -17 | 0.0 | 0.0 | 0.00 | 0.00 | 0.00 | |||
| 20260901041746 | -17 | 0.0 | 0.0 | 0.00 | 0.00 | 0.00 | |||
| 20260901041706 | -17 | 0.0 | 0.0 | 0.00 | 0.00 | 0.00 | |||
| 20260901041640 | -17 | 0.0 | 0.0 | 0.00 | 0.00 | 0.00 | |||
| 20260901041600 | -17 | 0.0 | 0.0 | 0.00 | 0.00 | 0.00 | |||
| 20260901041547 | -17 | 0.0 | 0.0 | 0.00 | 0.00 | 0.00 | |||
| 20260901041507 | -17 | 0.0 | 0.0 | 0.00 | 0.00 | 0.00 | |||
| 20260901041441 | -17 | 0.0 | 0.0 | 0.00 | 0.00 | 0.00 | |||
| 20260901041401 | -17 | 0.0 | 0.0 | 0.00 | 0.00 | 0.00 | |||
| 20260901041348 | -17 | 0.0 | 0.0 | 0.00 | 0.00 | 0.00 | |||
| 20260901041308 | -17 | 0.0 | 0.0 | 0.00 | 0.00 | 0.00 | |||
| 20260901041241 | -17 | 0.0 | 0.0 | 0.00 | 0.00 | 0.00 | |||
| 20260901041202 | -17 | 0.0 | 0.0 | 0.00 | 0.00 | 0.00 | |||
| 20260901041148 | -17 | 0.0 | 0.0 | 0.00 | 0.00 | 0.00 | |||
| 20260901041109 | -17 | 0.0 | 0.0 | 0.00 | 0.00 | 0.00 | |||
| 20260901041042 | -17 | 0.0 | 0.0 | 0.00 | 0.00 | 0.00 | |||
| 20260901041002 | -17 | 0.0 | 0.0 | 0.00 | 0.00 | 0.00 | |||
| 20260901040949 | -17 | 0.0 | 0.0 | 0.00 | 0.00 | 0.00 | |||
| 20260901040909 | -17 | 0.0 | 0.0 | 0.00 | 0.00 | 0.00 | |||
| 20260901040843 | -17 | 0.0 | 0.0 | 0.00 | 0.00 | 0.00 | |||
| 20260901040803 | -17 | 0.0 | 0.0 | 0.00 | 0.00 | 0.00 | |||
| 20260901040750 | -17 | 0.0 | 0.0 | 0.00 | 0.00 | 0.00 | |||
| 20260901040710 | -17 | 0.0 | 0.0 | 0.00 | 0.00 | 0.00 | |||
| 20260901040644 | -17 | 0.0 | 0.0 | 0.00 | 0.00 | 0.00 | |||
| 20260901040604 | -17 | 0.0 | 0.0 | 0.00 | 0.00 | 0.00 | |||
| 20260901040551 | -17 | 0.0 | 0.0 | 0.00 | 0.00 | 0.00 | |||
| 20260901040511 | -17 | 0.0 | 0.0 | 0.00 | 0.00 | 0.00 | |||
| 20260901040445 | -17 | 0.0 | 0.0 | 0.00 | 0.00 | 0.00 | |||
| 20260901040405 | -17 | 0.0 | 0.0 | 0.00 | 0.00 | 0.00 | |||
| 20260901040352 | -17 | 0.0 | 0.0 | 0.00 | 0.00 | 0.00 | |||
| 20260901040312 | -17 | 0.0 | 0.0 | 0.00 | 0.00 | 0.00 | |||
| 20260901040246 | -17 | 0.0 | 0.0 | 0.00 | 0.00 | 0.00 | |||
| 20260901040206 | -17 | 0.0 | 0.0 | 0.00 | 0.00 | 0.00 | |||
| 20260901040153 | -17 | 0.0 | 0.0 | 0.00 | 0.00 | 0.00 | |||
| 20260901040113 | -17 | 0.0 | 0.0 | 0.00 | 0.00 | 0.00 | |||
| 20260901040046 | -17 | 0.0 | 0.0 | 0.00 | 0.00 | 0.00 | |||
| 20260901040007 | -17 | 0.0 | 0.0 | 0.00 | 0.00 | 0.00 | |||
| 20260901035940 | -17 | 0.0 | 0.0 | 0.00 | 0.00 | 0.00 | |||
| 20260901035901 | -17 | 0.0 | 0.0 | 0.00 | 0.00 | 0.00 | |||
| 20260901035848 | -17 | 0.0 | 0.0 | 0.00 | 0.00 | 0.00 | |||
| 20260901035808 | -17 | 0.0 | 0.0 | 0.00 | 0.00 | 0.00 | |||
| 20260901035741 | -17 | 0.0 | 0.0 | 0.00 | 0.00 | 0.00 | |||
| 20260901035701 | -17 | 0.0 | 0.0 | 0.00 | 0.00 | 0.00 | |||
| 20260901035648 | -17 | 0.0 | 0.0 | 0.00 | 0.00 | 0.00 | |||
| 20260901035608 | -17 | 0.0 | 0.0 | 0.00 | 0.00 | 0.00 | |||
| 20260901035542 | -17 | 0.0 | 0.0 | 0.00 | 0.00 | 0.00 | |||
| 20260901035503 | -17 | 0.0 | 0.0 | 0.00 | 0.00 | 0.00 | |||
| 20260901035449 | -17 | 0.0 | 0.0 | 0.00 | 0.00 | 0.00 | |||
| 20260901035409 | -17 | 0.0 | 0.0 | 0.00 | 0.00 | 0.00 | |||
| 20260901035343 | -17 | 0.0 | 0.0 | 0.00 | 0.00 | 0.00 | |||
| 20260901035305 | -17 | 0.0 | 0.0 | 0.00 | 0.00 | 0.00 | |||
| 20260901035250 | -17 | 0.0 | 0.0 | 0.00 | 0.00 | 0.00 | |||
| 20260901035210 | -17 | 0.0 | 0.0 | 0.00 | 0.00 | 0.00 | |||
| 20260901035144 | -17 | 0.0 | 0.0 | 0.00 | 0.00 | 0.00 | |||
| 20260901035104 | -17 | 0.0 | 0.0 | 0.00 | 0.00 | 0.00 | |||
| 20260901035051 | -17 | 0.0 | 0.0 | 0.00 | 0.00 | 0.00 | |||
| 20260901035011 | -17 | 0.0 | 0.0 | 0.00 | 0.00 | 0.00 | |||
| 20260901034944 | -17 | 0.0 | 0.0 | 0.00 | 0.00 | 0.00 | |||
| 20260901034905 | -17 | 0.0 | 0.0 | 0.00 | 0.00 | 0.00 | |||
| 20260901034851 | -17 | 0.0 | 0.0 | 0.00 | 0.00 | 0.00 | |||
| 20260901034812 | -17 | 0.0 | 0.0 | 0.00 | 0.00 | 0.00 | |||
| 20260901034745 | -17 | 0.0 | 0.0 | 0.00 | 0.00 | 0.00 | |||
| 20260901034706 | -17 | 0.0 | 0.0 | 0.00 | 0.00 | 0.00 | |||
| 20260901034653 | -17 | 0.0 | 0.0 | 0.00 | 0.00 | 0.00 | |||
| 20260901034613 | -17 | 0.0 | 0.0 | 0.00 | 0.00 | 0.00 | |||
| 20260901034546 | -17 | 0.0 | 0.0 | 0.00 | 0.00 | 0.00 | |||
| 20260901034507 | -17 | 0.0 | 0.0 | 0.00 | 0.00 | 0.00 | |||
| 20260901034440 | -17 | 0.0 | 0.0 | 0.00 | 0.00 | 0.00 | |||
| 20260901034400 | -17 | 0.0 | 0.0 | 0.00 | 0.00 | 0.00 | |||
| 20260901034347 | -17 | 0.0 | 0.0 | 0.00 | 0.00 | 0.00 | |||
| 20260901034307 | -17 | 0.0 | 0.0 | 0.00 | 0.00 | 0.00 | |||
| 20260901034241 | -17 | 0.0 | 0.0 | 0.00 | 0.00 | 0.00 | |||
| 20260901034201 | -17 | 0.0 | 0.0 | 0.00 | 0.00 | 0.00 | |||
| 20260901034148 | -17 | 0.0 | 0.0 | 0.00 | 0.00 | 0.00 | |||
| 20260901034108 | -17 | 0.0 | 0.0 | 0.00 | 0.00 | 0.00 | |||
| 20260901034042 | -17 | 0.0 | 0.0 | 0.00 | 0.00 | 0.00 | |||
| 20260901034002 | -17 | 0.0 | 0.0 | 0.00 | 0.00 | 0.00 | |||
| 20260901033949 | -17 | 0.0 | 0.0 | 0.00 | 0.00 | 0.00 | |||
| 20260901033909 | -17 | 0.0 | 0.0 | 0.00 | 0.00 | 0.00 | |||
| 20260901033842 | -17 | 0.0 | 0.0 | 0.00 | 0.00 | 0.00 | |||
| 20260901033803 | -17 | 0.0 | 0.0 | 0.00 | 0.00 | 0.00 | |||
| 20260901033750 | -17 | 0.0 | 0.0 | 0.00 | 0.00 | 0.00 | |||
| 20260901033710 | -17 | 0.0 | 0.0 | 0.00 | 0.00 | 0.00 | |||
| 20260901033644 | -17 | 0.0 | 0.0 | 0.00 | 0.00 | 0.00 | |||
| 20260901033604 | -17 | 0.0 | 0.0 | 0.00 | 0.00 | 0.00 | |||
| 20260901033551 | -17 | 0.0 | 0.0 | 0.00 | 0.00 | 0.00 | |||
| 20260901033511 | -17 | 0.0 | 0.0 | 0.00 | 0.00 | 0.00 | |||
| 20260901033445 | -17 | 0.0 | 0.0 | 0.00 | 0.00 | 0.00 | |||
| 20260901033405 | -17 | 0.0 | 0.0 | 0.00 | 0.00 | 0.00 | |||
| 20260901033352 | -17 | 0.0 | 0.0 | 0.00 | 0.00 | 0.00 | |||
| 20260901033312 | -17 | 0.0 | 0.0 | 0.00 | 0.00 | 0.00 | |||
| 20260901033246 | -17 | 0.0 | 0.0 | 0.00 | 0.00 | 0.00 | |||
| 20260901033206 | -17 | 0.0 | 0.0 | 0.00 | 0.00 | 0.00 | |||
| 20260901033140 | -17 | 0.0 | 0.0 | 0.00 | 0.00 | 0.00 | |||
| 20260901033100 | -17 | 0.0 | 0.0 | 0.00 | 0.00 | 0.00 | |||
| 20260901033047 | -17 | 0.0 | 0.0 | 0.00 | 0.00 | 0.00 | |||
| 20260901033007 | -17 | 0.0 | 0.0 | 0.00 | 0.00 | 0.00 | |||
| 20260901032941 | -17 | 0.0 | 0.0 | 0.00 | 0.00 | 0.00 | |||
| 20260901032901 | -17 | 0.0 | 0.0 | 0.00 | 0.00 | 0.00 | |||
| 20260901032848 | -17 | 0.0 | 0.0 | 0.00 | 0.00 | 0.00 | |||
| 20260901032808 | -17 | 0.0 | 0.0 | 0.00 | 0.00 | 0.00 | |||
| 20260901032741 | -17 | 0.0 | 0.0 | 0.00 | 0.00 | 0.00 | |||
| 20260901032701 | -17 | 0.0 | 0.0 | 0.00 | 0.00 | 0.00 | |||
| 20260901032648 | -17 | 0.0 | 0.0 | 0.00 | 0.00 | 0.00 | |||
| 20260901032609 | -17 | 0.0 | 0.0 | 0.00 | 0.00 | 0.00 | |||
| 20260901032542 | -17 | 0.0 | 0.0 | 0.00 | 0.00 | 0.00 | |||
| 20260901032502 | -17 | 0.0 | 0.0 | 0.00 | 0.00 | 0.00 | |||
| 20260901032449 | -17 | 0.0 | 0.0 | 0.00 | 0.00 | 0.00 | |||
| 20260901032409 | -17 | 0.0 | 0.0 | 0.00 | 0.00 | 0.00 | |||
| 20260901032343 | -17 | 0.0 | 0.0 | 0.00 | 0.00 | 0.00 | |||
| 20260901032306 | -17 | 0.0 | 0.0 | 0.00 | 0.00 | 0.00 | |||
| 20260901032250 | -17 | 0.0 | 0.0 | 0.00 | 0.00 | 0.00 | |||
| 20260901032210 | -17 | 0.0 | 0.0 | 0.00 | 0.00 | 0.00 | |||
| 20260901032144 | -17 | 0.0 | 0.0 | 0.00 | 0.00 | 0.00 | |||
| 20260901032104 | -17 | 0.0 | 0.0 | 0.00 | 0.00 | 0.00 | |||
| 20260901032051 | -17 | 0.0 | 0.0 | 0.00 | 0.00 | 0.00 | |||
| 20260901032011 | -17 | 0.0 | 0.0 | 0.00 | 0.00 | 0.00 | |||
| 20260901031945 | -17 | 0.0 | 0.0 | 0.00 | 0.00 | 0.00 | |||
| 20260901031905 | -17 | 0.0 | 0.0 | 0.00 | 0.00 | 0.00 | |||
| 20260901031852 | -17 | 0.0 | 0.0 | 0.00 | 0.00 | 0.00 | |||
| 20260901031812 | -17 | 0.0 | 0.0 | 0.00 | 0.00 | 0.00 | |||
| 20260901031746 | -17 | 0.0 | 0.0 | 0.00 | 0.00 | 0.00 | |||
| 20260901031706 | -17 | 0.0 | 0.0 | 0.00 | 0.00 | 0.00 | |||
| 20260901031653 | -17 | 0.0 | 0.0 | 0.00 | 0.00 | 0.00 | |||
| 20260901031613 | -17 | 0.0 | 0.0 | 0.00 | 0.00 | 0.00 | |||
| 20260901031547 | -17 | 0.0 | 0.0 | 0.00 | 0.00 | 0.00 | |||
| 20260901031507 | -17 | 0.0 | 0.0 | 0.00 | 0.00 | 0.00 | |||
| 20260901031440 | -17 | 0.0 | 0.0 | 0.00 | 0.00 | 0.00 | |||
| 20260901031401 | -17 | 0.0 | 0.0 | 0.00 | 0.00 | 0.00 | |||
| 20260901031348 | -17 | 0.0 | 0.0 | 0.00 | 0.00 | 0.00 | |||
| 20260901031308 | -17 | 0.0 | 0.0 | 0.00 | 0.00 | 0.00 | |||
| 20260901031241 | -17 | 0.0 | 0.0 | 0.00 | 0.00 | 0.00 | |||
| 20260901031202 | -17 | 0.0 | 0.0 | 0.00 | 0.00 | 0.00 | |||
| 20260901031148 | -17 | 0.0 | 0.0 | 0.00 | 0.00 | 0.00 | |||
| 20260901031109 | -17 | 0.0 | 0.0 | 0.00 | 0.00 | 0.00 | |||
| 20260901031042 | -17 | 0.0 | 0.0 | 0.00 | 0.00 | 0.00 | |||
| 20260901031002 | -17 | 0.0 | 0.0 | 0.00 | 0.00 | 0.00 | |||
| 20260901030949 | -17 | 0.0 | 0.0 | 0.00 | 0.00 | 0.00 | |||
| 20260901030909 | -17 | 0.0 | 0.0 | 0.00 | 0.00 | 0.00 | |||
| 20260901030843 | -17 | 0.0 | 0.0 | 0.00 | 0.00 | 0.00 | |||
| 20260901030803 | -17 | 0.0 | 0.0 | 0.00 | 0.00 | 0.00 | |||
| 20260901030750 | -17 | 0.0 | 0.0 | 0.00 | 0.00 | 0.00 | |||
| 20260901030711 | -17 | 0.0 | 0.0 | 0.00 | 0.00 | 0.00 | |||
| 20260901030644 | -17 | 0.0 | 0.0 | 0.00 | 0.00 | 0.00 | |||
| 20260901030604 | -17 | 0.0 | 0.0 | 0.00 | 0.00 | 0.00 | |||
| 20260901030551 | -17 | 0.0 | 0.0 | 0.00 | 0.00 | 0.00 | |||
| 20260901030511 | -17 | 0.0 | 0.0 | 0.00 | 0.00 | 0.00 | |||
| 20260901030445 | -17 | 0.0 | 0.0 | 0.00 | 0.00 | 0.00 | |||
| 20260901030405 | -17 | 0.0 | 0.0 | 0.00 | 0.00 | 0.00 | |||
| 20260901030352 | -17 | 0.0 | 0.0 | 0.00 | 0.00 | 0.00 | |||
| 20260901030312 | -17 | 0.0 | 0.0 | 0.00 | 0.00 | 0.00 | |||
| 20260901030246 | -17 | 0.0 | 0.0 | 0.00 | 0.00 | 0.00 | |||
| 20260901030206 | -17 | 0.0 | 0.0 | 0.00 | 0.00 | 0.00 | |||
| 20260901030152 | -17 | 0.0 | 0.0 | 0.00 | 0.00 | 0.00 | |||
| 20260901030113 | -17 | 0.0 | 0.0 | 0.00 | 0.00 | 0.00 | |||
| 20260901030046 | -17 | 0.0 | 0.0 | 0.00 | 0.00 | 0.00 | |||
| 20260901030006 | -17 | 0.0 | 0.0 | 0.00 | 0.00 | 0.00 | |||
| 20260901025940 | -17 | 0.0 | 0.0 | 0.00 | 0.00 | 0.00 | |||
| 20260901025900 | -17 | 0.0 | 0.0 | 0.00 | 0.00 | 0.00 | |||
| 20260901025847 | -17 | 0.0 | 0.0 | 0.00 | 0.00 | 0.00 | |||
| 20260901025807 | -17 | 0.0 | 0.0 | 0.00 | 0.00 | 0.00 | |||
| 20260901025741 | -17 | 0.0 | 0.0 | 0.00 | 0.00 | 0.00 | |||
| 20260901025701 | -17 | 0.0 | 0.0 | 0.00 | 0.00 | 0.00 | |||
| 20260901025648 | -17 | 0.0 | 0.0 | 0.00 | 0.00 | 0.00 | |||
| 20260901025608 | -17 | 0.0 | 0.0 | 0.00 | 0.00 | 0.00 | |||
| 20260901025541 | -17 | 0.0 | 0.0 | 0.00 | 0.00 | 0.00 | |||
| 20260901025502 | -17 | 0.0 | 0.0 | 0.00 | 0.00 | 0.00 | |||
| 20260901025448 | -17 | 0.0 | 0.0 | 0.00 | 0.00 | 0.00 | |||
| 20260901025409 | -17 | 0.0 | 0.0 | 0.00 | 0.00 | 0.00 | |||
| 20260901025342 | -17 | 0.0 | 0.0 | 0.00 | 0.00 | 0.00 | |||
| 20260901025305 | -17 | 0.0 | 0.0 | 0.00 | 0.00 | 0.00 | |||
| 20260901025249 | -17 | 0.0 | 0.0 | 0.00 | 0.00 | 0.00 | |||
| 20260901025209 | -17 | 0.0 | 0.0 | 0.00 | 0.00 | 0.00 | |||
| 20260901025143 | -17 | 0.0 | 0.0 | 0.00 | 0.00 | 0.00 | |||
| 20260901025103 | -17 | 0.0 | 0.0 | 0.00 | 0.00 | 0.00 | |||
| 20260901025050 | -17 | 0.0 | 0.0 | 0.00 | 0.00 | 0.00 | |||
| 20260901025010 | -17 | 0.0 | 0.0 | 0.00 | 0.00 | 0.00 | |||
| 20260901024944 | -17 | 0.0 | 0.0 | 0.00 | 0.00 | 0.00 |